SAA27D SKBO-GOBD
Flight info
| Callsign | SAA27D |
|---|---|
| Flight time | 7h 33m |
| Altitude | 37000 |
| Route | MAVDA UW20 AUC DCT MIQ UN669 ELJEZ/M083F370 DCT 2150N/M083F390 DCT 2340N DCT 22N036W DCT ERNEK/N0478F390 DCT EVKAS DCT BVT DCT MOGSA DCT PIVSA |
| Aircraft | A346/H-SDE2E3FGHIJ3J4J5M1RWXY/LB1D1 |
Departure
| Time | 2026-04-25 14:11 |
|---|---|
| Airport | El Dorado International Airport (SKBO) |
Arrival
| Time | 2026-04-25 21:44 |
|---|---|
| Airport | Blaise Diagne International Airport (GOBD) |
| Time | Latitude | Longitude | Altitude | Speed | Heading |
|---|---|---|---|---|---|
| 2026-04-25 12:55 | 4.69816 | -74.13877 | 8381 ft | 0 kts | 216° |
| 2026-04-25 13:34 | 4.69833 | -74.13864 | 8378 ft | 4 kts | 218° |
| 2026-04-25 13:35 | 4.69851 | -74.13849 | 8381 ft | 4 kts | 229° |
| 2026-04-25 13:35 | 4.69861 | -74.13831 | 8379 ft | 4 kts | 262° |
| 2026-04-25 13:35 | 4.69858 | -74.13813 | 8380 ft | 4 kts | 298° |
| 2026-04-25 13:35 | 4.69854 | -74.13807 | 8377 ft | 0 kts | 304° |
| 2026-04-25 13:41 | 4.69857 | -74.13812 | 8379 ft | 1 kts | 304° |
| 2026-04-25 13:41 | 4.69866 | -74.13825 | 8379 ft | 3 kts | 304° |
| 2026-04-25 13:41 | 4.69885 | -74.13848 | 8377 ft | 5 kts | 315° |
| 2026-04-25 13:41 | 4.69924 | -74.13863 | 8379 ft | 7 kts | 353° |
| 2026-04-25 13:42 | 4.69978 | -74.13877 | 8378 ft | 8 kts | 328° |
| 2026-04-25 13:42 | 4.70028 | -74.13922 | 8377 ft | 10 kts | 312° |
| 2026-04-25 13:42 | 4.70047 | -74.13945 | 8378 ft | 0 kts | 310° |
| 2026-04-25 13:45 | 4.70057 | -74.13958 | 8378 ft | 9 kts | 308° |
| 2026-04-25 13:45 | 4.70112 | -74.14030 | 8378 ft | 17 kts | 307° |
| 2026-04-25 13:45 | 4.70199 | -74.14144 | 8378 ft | 24 kts | 307° |
| 2026-04-25 13:45 | 4.70290 | -74.14262 | 8379 ft | 14 kts | 307° |
| 2026-04-25 13:46 | 4.70309 | -74.14287 | 8379 ft | 0 kts | 307° |
| 2026-04-25 13:47 | 4.70311 | -74.14290 | 8379 ft | 5 kts | 307° |
| 2026-04-25 13:47 | 4.70346 | -74.14338 | 8379 ft | 9 kts | 303° |
| 2026-04-25 13:47 | 4.70379 | -74.14383 | 8379 ft | 7 kts | 307° |
| 2026-04-25 13:47 | 4.70405 | -74.14418 | 8378 ft | 5 kts | 307° |
| 2026-04-25 13:48 | 4.70419 | -74.14440 | 8379 ft | 3 kts | 288° |
| 2026-04-25 13:48 | 4.70423 | -74.14453 | 8379 ft | 1 kts | 283° |
| 2026-04-25 13:48 | 4.70423 | -74.14454 | 8379 ft | 1 kts | 283° |
| 2026-04-25 13:49 | 4.70427 | -74.14495 | 8379 ft | 7 kts | 250° |
| 2026-04-25 13:49 | 4.70393 | -74.14533 | 8379 ft | 7 kts | 219° |
| 2026-04-25 13:49 | 4.70360 | -74.14558 | 8379 ft | 5 kts | 217° |
| 2026-04-25 13:49 | 4.70341 | -74.14573 | 8379 ft | 2 kts | 217° |
| 2026-04-25 13:50 | 4.70336 | -74.14577 | 8379 ft | 0 kts | 217° |
| 2026-04-25 13:50 | 4.70330 | -74.14582 | 8381 ft | 6 kts | 217° |
| 2026-04-25 13:50 | 4.70249 | -74.14644 | 8380 ft | 20 kts | 217° |
| 2026-04-25 13:51 | 4.70168 | -74.14706 | 8379 ft | 0 kts | 217° |
| 2026-04-25 13:51 | 4.70166 | -74.14708 | 8379 ft | 4 kts | 217° |
| 2026-04-25 13:52 | 4.70135 | -74.14732 | 8378 ft | 5 kts | 217° |
| 2026-04-25 13:52 | 4.70114 | -74.14748 | 8379 ft | 2 kts | 217° |
| 2026-04-25 13:52 | 4.70107 | -74.14754 | 8379 ft | 0 kts | 217° |
| 2026-04-25 13:52 | 4.70076 | -74.14777 | 8379 ft | 14 kts | 217° |
| 2026-04-25 13:53 | 4.69966 | -74.14863 | 8379 ft | 24 kts | 217° |
| 2026-04-25 13:53 | 4.69871 | -74.14937 | 8378 ft | 14 kts | 247° |
| 2026-04-25 13:53 | 4.69893 | -74.15019 | 8379 ft | 12 kts | 308° |
| 2026-04-25 13:53 | 4.69965 | -74.15122 | 8379 ft | 24 kts | 305° |
| 2026-04-25 13:54 | 4.70087 | -74.15284 | 8380 ft | 34 kts | 305° |
| 2026-04-25 13:54 | 4.70227 | -74.15471 | 8379 ft | 31 kts | 307° |
| 2026-04-25 13:54 | 4.70309 | -74.15579 | 8379 ft | 18 kts | 307° |
| 2026-04-25 13:54 | 4.70385 | -74.15679 | 8379 ft | 18 kts | 307° |
| 2026-04-25 13:55 | 4.70460 | -74.15778 | 8379 ft | 18 kts | 307° |
| 2026-04-25 13:55 | 4.70534 | -74.15874 | 8379 ft | 17 kts | 307° |
| 2026-04-25 13:55 | 4.70607 | -74.15971 | 8380 ft | 17 kts | 307° |
| 2026-04-25 13:55 | 4.70679 | -74.16065 | 8380 ft | 17 kts | 307° |
| 2026-04-25 13:56 | 4.70747 | -74.16155 | 8378 ft | 15 kts | 307° |
| 2026-04-25 13:56 | 4.70810 | -74.16236 | 8379 ft | 14 kts | 307° |
| 2026-04-25 13:56 | 4.70866 | -74.16309 | 8380 ft | 13 kts | 307° |
| 2026-04-25 13:56 | 4.70918 | -74.16378 | 8379 ft | 12 kts | 307° |
| 2026-04-25 13:57 | 4.70966 | -74.16440 | 8378 ft | 11 kts | 307° |
| 2026-04-25 13:57 | 4.70996 | -74.16481 | 8379 ft | 10 kts | 307° |
| 2026-04-25 13:57 | 4.71051 | -74.16553 | 8379 ft | 9 kts | 307° |
| 2026-04-25 13:57 | 4.71086 | -74.16598 | 8379 ft | 7 kts | 307° |
| 2026-04-25 13:58 | 4.71112 | -74.16632 | 8379 ft | 5 kts | 307° |
| 2026-04-25 13:58 | 4.71127 | -74.16652 | 8379 ft | 2 kts | 307° |
| 2026-04-25 13:58 | 4.71130 | -74.16655 | 8379 ft | 0 kts | 307° |
| 2026-04-25 13:59 | 4.71154 | -74.16687 | 8380 ft | 8 kts | 307° |
| 2026-04-25 13:59 | 4.71183 | -74.16725 | 8381 ft | 6 kts | 304° |
| 2026-04-25 13:59 | 4.71195 | -74.16754 | 8379 ft | 3 kts | 283° |
| 2026-04-25 13:59 | 4.71197 | -74.16763 | 8379 ft | 0 kts | 274° |
| 2026-04-25 14:00 | 4.71193 | -74.16781 | 8380 ft | 6 kts | 250° |
| 2026-04-25 14:00 | 4.71164 | -74.16820 | 8379 ft | 4 kts | 220° |
| 2026-04-25 14:00 | 4.71161 | -74.16822 | 8379 ft | 0 kts | 220° |
| 2026-04-25 14:07 | 4.71158 | -74.16825 | 8379 ft | 5 kts | 220° |
| 2026-04-25 14:07 | 4.71093 | -74.16876 | 8378 ft | 17 kts | 210° |
| 2026-04-25 14:07 | 4.71013 | -74.16855 | 8379 ft | 2 kts | 130° |
| 2026-04-25 14:10 | 4.70996 | -74.16834 | 8379 ft | 21 kts | 129° |
| 2026-04-25 14:10 | 4.70758 | -74.16521 | 8381 ft | 88 kts | 127° |
| 2026-04-25 14:11 | 4.70273 | -74.15880 | 8379 ft | 144 kts | 127° |
| 2026-04-25 14:11 | 4.69571 | -74.14948 | 8378 ft | 190 kts | 127° |
| 2026-04-25 14:11 | 4.68724 | -74.13801 | 8639 ft | 209 kts | 125° |
| 2026-04-25 14:11 | 4.67840 | -74.12675 | 9441 ft | 206 kts | 141° |
| 2026-04-25 14:12 | 4.66521 | -74.12211 | 9984 ft | 206 kts | 186° |
| 2026-04-25 14:12 | 4.65184 | -74.12752 | 10419 ft | 217 kts | 221° |
| 2026-04-25 14:12 | 4.64329 | -74.14058 | 10736 ft | 232 kts | 246° |
| 2026-04-25 14:12 | 4.63711 | -74.15616 | 11192 ft | 245 kts | 248° |
| 2026-04-25 14:13 | 4.63079 | -74.17208 | 11778 ft | 245 kts | 248° |
| 2026-04-25 14:13 | 4.62422 | -74.18791 | 12210 ft | 247 kts | 247° |
| 2026-04-25 14:13 | 4.61779 | -74.20405 | 12619 ft | 250 kts | 251° |
| 2026-04-25 14:13 | 4.61445 | -74.21516 | 12893 ft | 252 kts | 255° |
| 2026-04-25 14:14 | 4.61066 | -74.23270 | 13154 ft | 263 kts | 258° |
| 2026-04-25 14:14 | 4.60721 | -74.25097 | 13500 ft | 269 kts | 259° |
| 2026-04-25 14:14 | 4.60195 | -74.26949 | 13672 ft | 284 kts | 244° |
| 2026-04-25 14:14 | 4.59862 | -74.27592 | 13742 ft | 288 kts | 237° |
| 2026-04-25 14:15 | 4.59360 | -74.28327 | 13855 ft | 294 kts | 230° |
| 2026-04-25 14:15 | 4.57434 | -74.30380 | 14198 ft | 310 kts | 225° |
| 2026-04-25 14:15 | 4.55895 | -74.31919 | 14566 ft | 314 kts | 225° |
| 2026-04-25 14:16 | 4.54346 | -74.33480 | 15049 ft | 316 kts | 225° |
| 2026-04-25 14:16 | 4.52792 | -74.35048 | 15526 ft | 317 kts | 224° |
| 2026-04-25 14:16 | 4.51116 | -74.36503 | 15738 ft | 328 kts | 218° |
| 2026-04-25 14:16 | 4.49207 | -74.37825 | 15922 ft | 340 kts | 212° |
| 2026-04-25 14:17 | 4.47082 | -74.38964 | 16097 ft | 352 kts | 205° |
| 2026-04-25 14:17 | 4.44804 | -74.39944 | 16322 ft | 361 kts | 204° |
| 2026-04-25 14:17 | 4.42527 | -74.41048 | 16693 ft | 364 kts | 209° |
| 2026-04-25 14:17 | 4.40308 | -74.42301 | 17177 ft | 366 kts | 211° |
| 2026-04-25 14:18 | 4.38083 | -74.43568 | 17607 ft | 369 kts | 206° |
| 2026-04-25 14:18 | 4.35629 | -74.44340 | 17986 ft | 374 kts | 188° |
| 2026-04-25 14:18 | 4.33018 | -74.44348 | 18418 ft | 378 kts | 171° |
| 2026-04-25 14:18 | 4.30517 | -74.43554 | 18748 ft | 382 kts | 151° |
| 2026-04-25 14:19 | 4.28414 | -74.41905 | 18962 ft | 390 kts | 130° |
| 2026-04-25 14:19 | 4.27019 | -74.39536 | 19112 ft | 400 kts | 108° |
| 2026-04-25 14:19 | 4.26586 | -74.36759 | 19261 ft | 409 kts | 86° |
| 2026-04-25 14:19 | 4.27227 | -74.33965 | 19451 ft | 417 kts | 64° |
| 2026-04-25 14:20 | 4.28847 | -74.31532 | 19640 ft | 423 kts | 50° |
| 2026-04-25 14:20 | 4.30087 | -74.30016 | 19752 ft | 430 kts | 50° |
| 2026-04-25 14:20 | 4.32645 | -74.26850 | 20057 ft | 440 kts | 50° |
| 2026-04-25 14:20 | 4.34557 | -74.24450 | 20463 ft | 442 kts | 51° |
| 2026-04-25 14:21 | 4.36474 | -74.22026 | 20896 ft | 443 kts | 51° |
| 2026-04-25 14:21 | 4.38385 | -74.19596 | 21349 ft | 445 kts | 51° |
| 2026-04-25 14:21 | 4.40307 | -74.17145 | 21778 ft | 447 kts | 51° |
| 2026-04-25 14:21 | 4.42231 | -74.14686 | 22168 ft | 450 kts | 51° |
| 2026-04-25 14:22 | 4.44171 | -74.12205 | 22547 ft | 453 kts | 51° |
| 2026-04-25 14:22 | 4.46121 | -74.09709 | 22928 ft | 455 kts | 51° |
| 2026-04-25 14:22 | 4.48079 | -74.07202 | 23318 ft | 457 kts | 51° |
| 2026-04-25 14:22 | 4.50014 | -74.04723 | 23645 ft | 459 kts | 51° |
| 2026-04-25 14:23 | 4.51989 | -74.02192 | 23969 ft | 461 kts | 51° |
| 2026-04-25 14:23 | 4.53974 | -73.99651 | 24281 ft | 463 kts | 51° |
| 2026-04-25 14:23 | 4.55967 | -73.97099 | 24607 ft | 464 kts | 52° |
| 2026-04-25 14:23 | 4.57964 | -73.94541 | 24929 ft | 465 kts | 52° |
| 2026-04-25 14:24 | 4.59958 | -73.91987 | 25215 ft | 467 kts | 52° |
| 2026-04-25 14:24 | 4.61967 | -73.89412 | 25516 ft | 469 kts | 52° |
| 2026-04-25 14:24 | 4.63986 | -73.86824 | 25799 ft | 471 kts | 52° |
| 2026-04-25 14:24 | 4.66012 | -73.84226 | 26098 ft | 473 kts | 52° |
| 2026-04-25 14:25 | 4.68041 | -73.81623 | 26271 ft | 475 kts | 52° |
| 2026-04-25 14:25 | 4.70078 | -73.79009 | 26245 ft | 474 kts | 52° |
| 2026-04-25 14:25 | 4.72114 | -73.76398 | 26253 ft | 474 kts | 52° |
| 2026-04-25 14:25 | 4.73466 | -73.74663 | 26253 ft | 474 kts | 52° |
| 2026-04-25 14:26 | 4.76184 | -73.71174 | 26251 ft | 474 kts | 52° |
| 2026-04-25 14:26 | 4.78217 | -73.68565 | 26252 ft | 476 kts | 52° |
| 2026-04-25 14:26 | 4.80241 | -73.65968 | 26252 ft | 477 kts | 52° |
| 2026-04-25 14:26 | 4.82307 | -73.63317 | 26225 ft | 476 kts | 52° |
| 2026-04-25 14:27 | 4.84350 | -73.60698 | 26229 ft | 475 kts | 52° |
| 2026-04-25 14:27 | 4.86357 | -73.58121 | 26226 ft | 475 kts | 52° |
| 2026-04-25 14:27 | 4.88428 | -73.55462 | 26263 ft | 479 kts | 52° |
| 2026-04-25 14:27 | 4.90460 | -73.52854 | 26548 ft | 480 kts | 52° |
| 2026-04-25 14:28 | 4.92513 | -73.50218 | 26876 ft | 480 kts | 52° |
| 2026-04-25 14:28 | 4.94578 | -73.47567 | 27158 ft | 482 kts | 52° |
| 2026-04-25 14:28 | 4.96652 | -73.44903 | 27423 ft | 485 kts | 52° |
| 2026-04-25 14:28 | 4.98736 | -73.42227 | 27713 ft | 487 kts | 52° |
| 2026-04-25 14:29 | 5.00810 | -73.39562 | 27989 ft | 489 kts | 52° |
| 2026-04-25 14:29 | 5.02912 | -73.36862 | 28224 ft | 491 kts | 53° |
| 2026-04-25 14:29 | 5.05022 | -73.34151 | 28477 ft | 493 kts | 53° |
| 2026-04-25 14:29 | 5.07138 | -73.31433 | 28814 ft | 493 kts | 53° |
| 2026-04-25 14:30 | 5.09243 | -73.28731 | 29249 ft | 491 kts | 53° |
| 2026-04-25 14:30 | 5.13438 | -73.23342 | 30144 ft | 487 kts | 53° |
| 2026-04-25 14:30 | 5.15523 | -73.20659 | 30458 ft | 486 kts | 53° |
| 2026-04-25 14:31 | 5.17606 | -73.17980 | 30770 ft | 486 kts | 53° |
| 2026-04-25 14:31 | 5.19683 | -73.15308 | 31075 ft | 485 kts | 53° |
| 2026-04-25 14:31 | 5.21761 | -73.12636 | 31391 ft | 484 kts | 54° |
| 2026-04-25 14:31 | 5.23801 | -73.10012 | 31687 ft | 484 kts | 54° |
| 2026-04-25 14:32 | 5.25902 | -73.07309 | 32010 ft | 483 kts | 54° |
| 2026-04-25 14:32 | 5.27935 | -73.04693 | 32330 ft | 482 kts | 54° |
| 2026-04-25 14:32 | 5.30000 | -73.02036 | 32646 ft | 481 kts | 54° |
| 2026-04-25 14:32 | 5.32056 | -72.99390 | 32954 ft | 481 kts | 54° |
| 2026-04-25 14:33 | 5.34113 | -72.96742 | 33266 ft | 480 kts | 54° |
| 2026-04-25 14:33 | 5.36168 | -72.94097 | 33559 ft | 479 kts | 54° |
| 2026-04-25 14:33 | 5.38221 | -72.91454 | 33855 ft | 479 kts | 54° |
| 2026-04-25 14:33 | 5.40264 | -72.88823 | 34164 ft | 478 kts | 54° |
| 2026-04-25 14:34 | 5.42310 | -72.86187 | 34422 ft | 477 kts | 54° |
| 2026-04-25 14:34 | 5.44353 | -72.83555 | 34681 ft | 476 kts | 54° |
| 2026-04-25 14:34 | 5.46392 | -72.80928 | 34914 ft | 476 kts | 54° |
| 2026-04-25 14:34 | 5.48392 | -72.78350 | 35206 ft | 474 kts | 54° |
| 2026-04-25 14:35 | 5.50448 | -72.75701 | 35480 ft | 473 kts | 54° |
| 2026-04-25 14:35 | 5.52477 | -72.73087 | 35682 ft | 474 kts | 54° |
| 2026-04-25 14:35 | 5.54483 | -72.70501 | 35869 ft | 475 kts | 54° |
| 2026-04-25 14:35 | 5.56548 | -72.67839 | 36055 ft | 476 kts | 54° |
| 2026-04-25 14:36 | 5.58563 | -72.65241 | 36215 ft | 477 kts | 54° |
| 2026-04-25 14:36 | 5.60602 | -72.62613 | 36398 ft | 478 kts | 54° |
| 2026-04-25 14:36 | 5.62650 | -72.59973 | 36560 ft | 479 kts | 54° |
| 2026-04-25 14:36 | 5.64698 | -72.57326 | 36754 ft | 479 kts | 54° |
| 2026-04-25 14:37 | 5.66750 | -72.54679 | 36962 ft | 479 kts | 54° |
| 2026-04-25 14:37 | 5.68799 | -72.52038 | 37083 ft | 480 kts | 54° |
| 2026-04-25 14:37 | 5.72914 | -72.46734 | 37099 ft | 481 kts | 54° |
| 2026-04-25 14:38 | 5.77036 | -72.41417 | 37102 ft | 481 kts | 54° |
| 2026-04-25 14:38 | 5.81157 | -72.36099 | 37089 ft | 481 kts | 54° |
| 2026-04-25 14:39 | 5.85257 | -72.30809 | 37090 ft | 478 kts | 54° |
| 2026-04-25 14:39 | 5.89345 | -72.25529 | 37053 ft | 478 kts | 54° |
| 2026-04-25 14:40 | 5.93441 | -72.20236 | 37049 ft | 479 kts | 54° |
| 2026-04-25 14:40 | 5.97535 | -72.14946 | 37079 ft | 479 kts | 54° |
| 2026-04-25 14:41 | 6.01596 | -72.09699 | 37040 ft | 479 kts | 54° |
| 2026-04-25 14:41 | 6.05697 | -72.04396 | 37042 ft | 480 kts | 54° |
| 2026-04-25 14:42 | 6.08437 | -72.00854 | 37066 ft | 479 kts | 54° |
| 2026-04-25 14:42 | 6.13879 | -71.93815 | 37029 ft | 479 kts | 54° |
| 2026-04-25 14:43 | 6.17976 | -71.88508 | 37028 ft | 480 kts | 54° |
| 2026-04-25 14:43 | 6.22083 | -71.83191 | 37012 ft | 481 kts | 53° |
| 2026-04-25 14:44 | 6.25642 | -71.77550 | 37002 ft | 477 kts | 70° |
| 2026-04-25 14:44 | 6.26555 | -71.74350 | 37008 ft | 475 kts | 82° |
| 2026-04-25 14:44 | 6.26901 | -71.71052 | 37023 ft | 474 kts | 88° |
| 2026-04-25 14:45 | 6.27123 | -71.64416 | 36999 ft | 474 kts | 89° |
| 2026-04-25 14:45 | 6.27261 | -71.57779 | 36998 ft | 474 kts | 90° |
| 2026-04-25 14:46 | 6.27388 | -71.51181 | 36991 ft | 476 kts | 89° |
| 2026-04-25 14:46 | 6.27504 | -71.44507 | 36990 ft | 477 kts | 89° |
| 2026-04-25 14:47 | 6.27583 | -71.40047 | 36991 ft | 477 kts | 89° |
| 2026-04-25 14:47 | 6.27746 | -71.31159 | 36991 ft | 477 kts | 89° |
| 2026-04-25 14:48 | 6.27875 | -71.24482 | 36994 ft | 477 kts | 89° |
| 2026-04-25 14:48 | 6.29136 | -71.17940 | 36990 ft | 479 kts | 69° |
| 2026-04-25 14:49 | 6.32437 | -71.12119 | 36991 ft | 482 kts | 52° |
| 2026-04-25 14:49 | 6.37394 | -71.07559 | 36993 ft | 486 kts | 34° |
| 2026-04-25 14:50 | 6.43347 | -71.04411 | 36996 ft | 487 kts | 27° |
| 2026-04-25 14:50 | 6.49465 | -71.01446 | 36995 ft | 488 kts | 27° |
| 2026-04-25 14:51 | 6.55582 | -70.98447 | 36995 ft | 489 kts | 27° |
| 2026-04-25 14:51 | 6.61701 | -70.95424 | 36997 ft | 489 kts | 27° |
| 2026-04-25 14:52 | 6.67807 | -70.92399 | 36996 ft | 489 kts | 27° |
| 2026-04-25 14:52 | 6.71851 | -70.90394 | 36994 ft | 489 kts | 27° |
| 2026-04-25 14:53 | 6.79991 | -70.86356 | 36992 ft | 490 kts | 27° |
| 2026-04-25 14:53 | 6.86116 | -70.83317 | 36994 ft | 490 kts | 27° |
| 2026-04-25 14:54 | 6.92243 | -70.80276 | 36998 ft | 490 kts | 27° |
| 2026-04-25 14:54 | 6.98350 | -70.77223 | 36997 ft | 490 kts | 28° |
| 2026-04-25 14:55 | 7.04246 | -70.73777 | 36986 ft | 489 kts | 34° |
| 2026-04-25 14:55 | 7.09709 | -70.69712 | 36987 ft | 488 kts | 41° |
| 2026-04-25 14:56 | 7.14640 | -70.65096 | 36986 ft | 487 kts | 47° |
| 2026-04-25 14:56 | 7.19351 | -70.60176 | 36989 ft | 488 kts | 47° |
| 2026-04-25 14:57 | 7.24066 | -70.55231 | 36994 ft | 489 kts | 47° |
| 2026-04-25 14:57 | 7.28787 | -70.50288 | 37000 ft | 488 kts | 47° |
| 2026-04-25 14:58 | 7.33506 | -70.45360 | 37002 ft | 488 kts | 47° |
| 2026-04-25 14:58 | 7.38234 | -70.40425 | 37002 ft | 488 kts | 47° |
| 2026-04-25 14:59 | 7.42151 | -70.36333 | 37000 ft | 488 kts | 47° |
| 2026-04-25 14:59 | 7.46876 | -70.31396 | 36999 ft | 488 kts | 47° |
| 2026-04-25 15:00 | 7.51593 | -70.26466 | 37002 ft | 488 kts | 47° |
| 2026-04-25 15:00 | 7.56316 | -70.21531 | 37004 ft | 489 kts | 47° |
| 2026-04-25 15:01 | 7.61047 | -70.16577 | 36999 ft | 490 kts | 47° |
| 2026-04-25 15:01 | 7.65778 | -70.11627 | 36999 ft | 490 kts | 47° |
| 2026-04-25 15:02 | 7.70511 | -70.06676 | 37003 ft | 490 kts | 47° |
| 2026-04-25 15:02 | 7.75250 | -70.01715 | 37001 ft | 490 kts | 47° |
| 2026-04-25 15:03 | 7.79972 | -69.96770 | 36998 ft | 490 kts | 47° |
| 2026-04-25 15:03 | 7.84678 | -69.91839 | 37004 ft | 490 kts | 47° |
| 2026-04-25 15:04 | 7.89416 | -69.86875 | 37004 ft | 491 kts | 47° |
| 2026-04-25 15:04 | 7.94164 | -69.81895 | 37000 ft | 493 kts | 47° |
| 2026-04-25 15:05 | 7.98922 | -69.76905 | 36997 ft | 493 kts | 47° |
| 2026-04-25 15:06 | 8.06072 | -69.69403 | 36996 ft | 493 kts | 47° |
| 2026-04-25 15:06 | 8.10838 | -69.64400 | 36999 ft | 493 kts | 47° |
| 2026-04-25 15:07 | 8.15596 | -69.59404 | 37000 ft | 493 kts | 47° |
| 2026-04-25 15:07 | 8.20354 | -69.54408 | 37002 ft | 493 kts | 47° |
| 2026-04-25 15:08 | 8.25116 | -69.49397 | 36998 ft | 494 kts | 47° |
| 2026-04-25 15:08 | 8.29881 | -69.44388 | 36996 ft | 494 kts | 47° |
| 2026-04-25 15:09 | 8.34656 | -69.39368 | 36993 ft | 494 kts | 47° |
| 2026-04-25 15:09 | 8.41809 | -69.31843 | 36992 ft | 495 kts | 47° |
| 2026-04-25 15:10 | 8.46551 | -69.26851 | 36994 ft | 495 kts | 47° |
| 2026-04-25 15:11 | 8.53714 | -69.19311 | 36998 ft | 496 kts | 47° |
| 2026-04-25 15:11 | 8.58505 | -69.14258 | 36995 ft | 499 kts | 47° |
| 2026-04-25 15:12 | 8.65725 | -69.06647 | 36997 ft | 499 kts | 47° |
| 2026-04-25 15:12 | 8.69723 | -69.02431 | 36993 ft | 499 kts | 47° |
| 2026-04-25 15:13 | 8.77720 | -68.93993 | 36991 ft | 499 kts | 47° |
| 2026-04-25 15:14 | 8.82523 | -68.88922 | 36989 ft | 499 kts | 47° |
| 2026-04-25 15:14 | 8.87326 | -68.83849 | 36986 ft | 499 kts | 47° |
| 2026-04-25 15:15 | 8.92125 | -68.78779 | 36986 ft | 498 kts | 47° |
| 2026-04-25 15:15 | 8.96913 | -68.73718 | 36987 ft | 498 kts | 47° |
| 2026-04-25 15:16 | 9.01700 | -68.68655 | 36984 ft | 498 kts | 47° |
| 2026-04-25 15:16 | 9.08883 | -68.61055 | 36987 ft | 497 kts | 47° |
| 2026-04-25 15:17 | 9.16057 | -68.53461 | 36982 ft | 498 kts | 47° |
| 2026-04-25 15:18 | 9.20853 | -68.48382 | 36987 ft | 498 kts | 47° |
| 2026-04-25 15:18 | 9.28008 | -68.40799 | 36982 ft | 498 kts | 47° |
| 2026-04-25 15:19 | 9.32022 | -68.36541 | 36988 ft | 498 kts | 47° |
| 2026-04-25 15:19 | 9.37589 | -68.30637 | 36984 ft | 498 kts | 47° |
| 2026-04-25 15:20 | 9.42376 | -68.25556 | 36991 ft | 498 kts | 47° |
| 2026-04-25 15:20 | 9.47172 | -68.20464 | 36989 ft | 498 kts | 47° |
| 2026-04-25 15:21 | 9.51965 | -68.15375 | 36987 ft | 498 kts | 47° |
| 2026-04-25 15:21 | 9.56753 | -68.10287 | 36991 ft | 499 kts | 47° |
| 2026-04-25 15:22 | 9.61540 | -68.05197 | 36994 ft | 499 kts | 47° |
| 2026-04-25 15:22 | 9.66334 | -68.00097 | 36992 ft | 499 kts | 47° |
| 2026-04-25 15:23 | 9.71097 | -67.95029 | 37002 ft | 499 kts | 47° |
| 2026-04-25 15:23 | 9.75891 | -67.89927 | 36997 ft | 499 kts | 47° |
| 2026-04-25 15:24 | 9.80682 | -67.84823 | 36996 ft | 499 kts | 47° |
| 2026-04-25 15:24 | 9.84683 | -67.80559 | 37009 ft | 502 kts | 47° |
| 2026-04-25 15:25 | 9.90296 | -67.74577 | 37008 ft | 503 kts | 47° |
| 2026-04-25 15:25 | 9.95126 | -67.69427 | 37012 ft | 503 kts | 47° |
| 2026-04-25 15:26 | 9.99961 | -67.64268 | 37011 ft | 503 kts | 47° |
| 2026-04-25 15:26 | 10.04779 | -67.59126 | 37007 ft | 503 kts | 47° |
| 2026-04-25 15:27 | 10.09612 | -67.53964 | 37006 ft | 503 kts | 47° |
| 2026-04-25 15:28 | 10.16811 | -67.46275 | 37005 ft | 502 kts | 48° |
| 2026-04-25 15:28 | 10.21639 | -67.41110 | 37001 ft | 502 kts | 48° |
| 2026-04-25 15:29 | 10.26460 | -67.35954 | 37003 ft | 503 kts | 48° |
| 2026-04-25 15:29 | 10.31277 | -67.30799 | 37005 ft | 503 kts | 48° |
| 2026-04-25 15:30 | 10.36090 | -67.25644 | 37008 ft | 503 kts | 48° |
| 2026-04-25 15:30 | 10.40910 | -67.20479 | 37005 ft | 502 kts | 47° |
| 2026-04-25 15:31 | 10.45717 | -67.15326 | 36996 ft | 502 kts | 48° |
| 2026-04-25 15:31 | 10.50537 | -67.10160 | 36997 ft | 504 kts | 48° |
| 2026-04-25 15:32 | 10.55377 | -67.04963 | 36958 ft | 504 kts | 48° |
| 2026-04-25 15:32 | 10.60099 | -66.99719 | 36956 ft | 503 kts | 52° |
| 2026-04-25 15:33 | 10.66224 | -66.91131 | 36960 ft | 502 kts | 58° |
| 2026-04-25 15:33 | 10.70114 | -66.85230 | 36962 ft | 502 kts | 57° |
| 2026-04-25 15:34 | 10.74027 | -66.79320 | 36963 ft | 503 kts | 57° |
| 2026-04-25 15:34 | 10.76646 | -66.75374 | 36968 ft | 504 kts | 57° |
| 2026-04-25 15:35 | 10.83855 | -66.64511 | 36955 ft | 506 kts | 57° |
| 2026-04-25 15:36 | 10.89762 | -66.55598 | 36956 ft | 506 kts | 57° |
| 2026-04-25 15:36 | 10.93699 | -66.49654 | 36954 ft | 506 kts | 57° |
| 2026-04-25 15:37 | 10.97616 | -66.43737 | 36949 ft | 506 kts | 57° |
| 2026-04-25 15:37 | 11.01548 | -66.37794 | 36951 ft | 506 kts | 57° |
| 2026-04-25 15:38 | 11.05523 | -66.31871 | 36953 ft | 506 kts | 56° |
| 2026-04-25 15:38 | 11.09569 | -66.25945 | 36954 ft | 508 kts | 56° |
| 2026-04-25 15:39 | 11.13609 | -66.20024 | 36955 ft | 507 kts | 57° |
| 2026-04-25 15:39 | 11.17620 | -66.14119 | 36957 ft | 506 kts | 57° |
| 2026-04-25 15:40 | 11.20281 | -66.10198 | 36956 ft | 506 kts | 57° |
| 2026-04-25 15:40 | 11.22701 | -66.06631 | 36956 ft | 506 kts | 57° |
| 2026-04-25 15:41 | 11.26707 | -66.00724 | 36956 ft | 506 kts | 57° |
| 2026-04-25 15:41 | 11.30685 | -65.94854 | 36959 ft | 506 kts | 57° |
| 2026-04-25 15:42 | 11.34686 | -65.88949 | 36959 ft | 505 kts | 57° |
| 2026-04-25 15:42 | 11.38685 | -65.83039 | 36960 ft | 506 kts | 57° |
| 2026-04-25 15:43 | 11.42692 | -65.77116 | 36956 ft | 506 kts | 57° |
| 2026-04-25 15:43 | 11.46674 | -65.71230 | 36959 ft | 506 kts | 57° |
| 2026-04-25 15:44 | 11.50679 | -65.65303 | 36961 ft | 506 kts | 57° |
| 2026-04-25 15:44 | 11.54681 | -65.59371 | 36959 ft | 507 kts | 57° |
| 2026-04-25 15:45 | 11.58688 | -65.53427 | 36958 ft | 508 kts | 57° |
| 2026-04-25 15:45 | 11.61341 | -65.49496 | 36958 ft | 508 kts | 57° |
| 2026-04-25 15:46 | 11.66023 | -65.42548 | 36962 ft | 508 kts | 57° |
| 2026-04-25 15:46 | 11.70054 | -65.36629 | 36961 ft | 508 kts | 56° |
| 2026-04-25 15:47 | 11.74144 | -65.30736 | 36960 ft | 508 kts | 56° |
| 2026-04-25 15:47 | 11.78239 | -65.24823 | 36961 ft | 511 kts | 56° |
| 2026-04-25 15:48 | 11.82341 | -65.18890 | 36957 ft | 511 kts | 56° |
| 2026-04-25 15:48 | 11.86414 | -65.12991 | 36958 ft | 511 kts | 56° |
| 2026-04-25 15:49 | 11.90526 | -65.07030 | 36956 ft | 511 kts | 56° |
| 2026-04-25 15:49 | 11.94623 | -65.01087 | 36959 ft | 511 kts | 56° |
| 2026-04-25 15:50 | 11.98715 | -64.95146 | 36961 ft | 512 kts | 56° |
| 2026-04-25 15:50 | 12.02821 | -64.89183 | 36963 ft | 515 kts | 56° |
| 2026-04-25 15:51 | 12.06257 | -64.84190 | 36957 ft | 515 kts | 56° |
| 2026-04-25 15:51 | 12.11049 | -64.77221 | 36958 ft | 515 kts | 56° |
| 2026-04-25 15:52 | 12.15168 | -64.71227 | 36960 ft | 515 kts | 56° |
| 2026-04-25 15:52 | 12.19292 | -64.65221 | 36960 ft | 515 kts | 56° |
| 2026-04-25 15:53 | 12.23409 | -64.59222 | 36967 ft | 515 kts | 56° |
| 2026-04-25 15:53 | 12.27527 | -64.53214 | 36965 ft | 515 kts | 56° |
| 2026-04-25 15:54 | 12.31637 | -64.47218 | 36961 ft | 514 kts | 56° |
| 2026-04-25 15:54 | 12.35746 | -64.41219 | 36965 ft | 515 kts | 56° |
| 2026-04-25 15:55 | 12.39834 | -64.35189 | 36963 ft | 515 kts | 56° |
| 2026-04-25 15:55 | 12.43913 | -64.29141 | 36964 ft | 517 kts | 56° |
| 2026-04-25 15:56 | 12.47970 | -64.23117 | 36966 ft | 517 kts | 56° |
| 2026-04-25 15:56 | 12.52062 | -64.17041 | 36969 ft | 517 kts | 56° |
| 2026-04-25 15:57 | 12.56157 | -64.10957 | 36965 ft | 518 kts | 56° |
| 2026-04-25 15:57 | 12.60258 | -64.04865 | 36962 ft | 518 kts | 56° |
| 2026-04-25 15:58 | 12.64347 | -63.98794 | 36964 ft | 517 kts | 57° |
| 2026-04-25 15:58 | 12.68426 | -63.92719 | 36968 ft | 516 kts | 57° |
| 2026-04-25 15:59 | 12.72477 | -63.86684 | 36967 ft | 516 kts | 57° |
| 2026-04-25 15:59 | 12.76548 | -63.80616 | 36967 ft | 516 kts | 57° |
| 2026-04-25 16:00 | 12.79271 | -63.76556 | 36967 ft | 516 kts | 57° |
| 2026-04-25 16:00 | 12.84680 | -63.68467 | 36974 ft | 514 kts | 57° |
| 2026-04-25 16:01 | 12.88962 | -63.62596 | 36971 ft | 514 kts | 51° |
| 2026-04-25 16:01 | 12.93522 | -63.56927 | 36971 ft | 514 kts | 51° |
| 2026-04-25 16:02 | 12.98092 | -63.51267 | 36971 ft | 514 kts | 51° |
| 2026-04-25 16:02 | 13.02638 | -63.45616 | 36970 ft | 514 kts | 51° |
| 2026-04-25 16:03 | 13.07185 | -63.39948 | 36975 ft | 515 kts | 51° |
| 2026-04-25 16:03 | 13.11715 | -63.34297 | 36973 ft | 515 kts | 51° |
| 2026-04-25 16:04 | 13.16275 | -63.28606 | 36971 ft | 515 kts | 51° |
| 2026-04-25 16:04 | 13.20833 | -63.22912 | 36970 ft | 515 kts | 51° |
| 2026-04-25 16:05 | 13.25383 | -63.17226 | 36972 ft | 515 kts | 51° |
| 2026-04-25 16:06 | 13.32209 | -63.08687 | 36972 ft | 515 kts | 51° |
| 2026-04-25 16:06 | 13.36766 | -63.02982 | 36981 ft | 515 kts | 51° |
| 2026-04-25 16:07 | 13.41320 | -62.97275 | 36970 ft | 517 kts | 51° |
| 2026-04-25 16:07 | 13.45886 | -62.91551 | 36969 ft | 517 kts | 51° |
| 2026-04-25 16:08 | 13.50445 | -62.85832 | 36971 ft | 517 kts | 51° |
| 2026-04-25 16:08 | 13.54971 | -62.80151 | 36969 ft | 516 kts | 51° |
| 2026-04-25 16:09 | 13.59523 | -62.74433 | 36973 ft | 515 kts | 51° |
| 2026-04-25 16:09 | 13.64072 | -62.68715 | 36974 ft | 515 kts | 51° |
| 2026-04-25 16:10 | 13.68619 | -62.62996 | 36975 ft | 517 kts | 51° |
| 2026-04-25 16:10 | 13.73184 | -62.57249 | 36976 ft | 518 kts | 51° |
| 2026-04-25 16:11 | 13.77743 | -62.51507 | 36975 ft | 518 kts | 51° |
| 2026-04-25 16:11 | 13.82301 | -62.45764 | 36976 ft | 516 kts | 51° |
| 2026-04-25 16:12 | 13.86821 | -62.40062 | 36976 ft | 516 kts | 51° |
| 2026-04-25 16:12 | 13.91392 | -62.34291 | 36975 ft | 516 kts | 51° |
| 2026-04-25 16:13 | 13.95916 | -62.28577 | 36978 ft | 518 kts | 51° |
| 2026-04-25 16:13 | 14.00475 | -62.22815 | 36976 ft | 519 kts | 52° |
| 2026-04-25 16:14 | 14.05044 | -62.17034 | 36976 ft | 520 kts | 51° |
| 2026-04-25 16:14 | 14.09611 | -62.11255 | 36979 ft | 520 kts | 51° |
| 2026-04-25 16:15 | 14.14183 | -62.05464 | 36975 ft | 520 kts | 51° |
| 2026-04-25 16:15 | 14.18755 | -61.99670 | 36976 ft | 520 kts | 51° |
| 2026-04-25 16:16 | 14.23289 | -61.93921 | 36977 ft | 520 kts | 52° |
| 2026-04-25 16:16 | 14.27857 | -61.88120 | 36975 ft | 522 kts | 51° |
| 2026-04-25 16:17 | 14.32440 | -61.82299 | 36976 ft | 523 kts | 51° |
| 2026-04-25 16:17 | 14.37033 | -61.76462 | 36975 ft | 523 kts | 51° |
| 2026-04-25 16:18 | 14.41615 | -61.70634 | 36971 ft | 523 kts | 52° |
| 2026-04-25 16:18 | 14.46205 | -61.64791 | 36978 ft | 523 kts | 52° |
| 2026-04-25 16:19 | 14.50793 | -61.58947 | 36980 ft | 523 kts | 52° |
| 2026-04-25 16:19 | 14.55342 | -61.53148 | 36978 ft | 523 kts | 52° |
| 2026-04-25 16:20 | 14.62211 | -61.44382 | 36976 ft | 523 kts | 52° |
| 2026-04-25 16:21 | 14.69085 | -61.35601 | 36977 ft | 523 kts | 52° |
| 2026-04-25 16:21 | 14.73660 | -61.29750 | 36974 ft | 523 kts | 52° |
| 2026-04-25 16:22 | 14.78239 | -61.23890 | 36982 ft | 524 kts | 52° |
| 2026-04-25 16:22 | 14.82827 | -61.18013 | 36979 ft | 524 kts | 52° |
| 2026-04-25 16:23 | 14.87414 | -61.12133 | 36980 ft | 524 kts | 52° |
| 2026-04-25 16:23 | 14.91966 | -61.06302 | 36986 ft | 524 kts | 52° |
| 2026-04-25 16:24 | 14.96554 | -61.00416 | 36983 ft | 525 kts | 52° |
| 2026-04-25 16:24 | 15.01136 | -60.94533 | 36996 ft | 525 kts | 52° |
| 2026-04-25 16:25 | 15.05726 | -60.88631 | 36993 ft | 525 kts | 51° |
| 2026-04-25 16:25 | 15.10311 | -60.82734 | 36993 ft | 526 kts | 51° |
| 2026-04-25 16:26 | 15.14902 | -60.76824 | 36986 ft | 526 kts | 51° |
| 2026-04-25 16:26 | 15.19491 | -60.70911 | 36988 ft | 525 kts | 51° |
| 2026-04-25 16:27 | 15.24048 | -60.65036 | 36982 ft | 526 kts | 51° |
| 2026-04-25 16:27 | 15.28626 | -60.59126 | 36994 ft | 526 kts | 51° |
| 2026-04-25 16:28 | 15.33215 | -60.53199 | 36987 ft | 526 kts | 51° |
| 2026-04-25 16:28 | 15.37797 | -60.47279 | 36991 ft | 526 kts | 51° |
| 2026-04-25 16:29 | 15.42385 | -60.41345 | 36986 ft | 526 kts | 51° |
| 2026-04-25 16:29 | 15.46964 | -60.35418 | 36992 ft | 526 kts | 51° |
| 2026-04-25 16:30 | 15.50772 | -60.30485 | 36988 ft | 526 kts | 51° |
| 2026-04-25 16:30 | 15.56095 | -60.23583 | 36995 ft | 527 kts | 51° |
| 2026-04-25 16:31 | 15.60682 | -60.17632 | 36992 ft | 527 kts | 51° |
| 2026-04-25 16:31 | 15.65259 | -60.11687 | 36993 ft | 527 kts | 51° |
| 2026-04-25 16:32 | 15.69844 | -60.05730 | 36994 ft | 527 kts | 51° |
| 2026-04-25 16:32 | 15.74417 | -59.99783 | 36991 ft | 527 kts | 51° |
| 2026-04-25 16:33 | 15.78998 | -59.93820 | 36989 ft | 527 kts | 51° |
| 2026-04-25 16:33 | 15.83577 | -59.87854 | 36993 ft | 527 kts | 51° |
| 2026-04-25 16:34 | 15.88143 | -59.81900 | 36980 ft | 526 kts | 51° |
| 2026-04-25 16:34 | 15.92676 | -59.75985 | 36995 ft | 526 kts | 51° |
| 2026-04-25 16:35 | 15.97245 | -59.70018 | 36993 ft | 526 kts | 51° |
| 2026-04-25 16:35 | 16.01068 | -59.65021 | 36996 ft | 526 kts | 51° |
| 2026-04-25 16:36 | 16.05601 | -59.59089 | 36994 ft | 527 kts | 51° |
| 2026-04-25 16:36 | 16.10181 | -59.53089 | 36988 ft | 528 kts | 51° |
| 2026-04-25 16:37 | 16.14758 | -59.47094 | 36994 ft | 528 kts | 51° |
| 2026-04-25 16:37 | 16.19296 | -59.41146 | 36994 ft | 528 kts | 51° |
| 2026-04-25 16:38 | 16.23905 | -59.35108 | 36996 ft | 528 kts | 51° |
| 2026-04-25 16:38 | 16.28448 | -59.29145 | 36995 ft | 528 kts | 51° |
| 2026-04-25 16:39 | 16.33020 | -59.23135 | 36988 ft | 529 kts | 51° |
| 2026-04-25 16:39 | 16.37595 | -59.17119 | 36981 ft | 530 kts | 51° |
| 2026-04-25 16:40 | 16.42176 | -59.11089 | 36996 ft | 530 kts | 51° |
| 2026-04-25 16:40 | 16.46749 | -59.05064 | 36989 ft | 530 kts | 51° |
| 2026-04-25 16:41 | 16.51325 | -58.99031 | 36999 ft | 528 kts | 51° |
| 2026-04-25 16:41 | 16.58167 | -58.89996 | 36989 ft | 530 kts | 51° |
| 2026-04-25 16:42 | 16.62741 | -58.83952 | 37001 ft | 531 kts | 51° |
| 2026-04-25 16:42 | 16.67291 | -58.77935 | 37002 ft | 531 kts | 51° |
| 2026-04-25 16:43 | 16.71863 | -58.71884 | 37000 ft | 531 kts | 51° |
| 2026-04-25 16:43 | 16.76433 | -58.65829 | 37003 ft | 531 kts | 51° |
| 2026-04-25 16:44 | 16.81009 | -58.59760 | 36998 ft | 531 kts | 51° |
| 2026-04-25 16:44 | 16.85586 | -58.53686 | 37000 ft | 532 kts | 51° |
| 2026-04-25 16:45 | 16.90163 | -58.47607 | 36990 ft | 532 kts | 51° |
| 2026-04-25 16:45 | 16.94742 | -58.41518 | 36994 ft | 531 kts | 51° |
| 2026-04-25 16:46 | 16.99309 | -58.35441 | 37006 ft | 531 kts | 51° |
| 2026-04-25 16:46 | 17.03108 | -58.30381 | 37010 ft | 532 kts | 51° |
| 2026-04-25 16:47 | 17.08460 | -58.23246 | 37004 ft | 534 kts | 51° |
| 2026-04-25 16:47 | 17.13043 | -58.17132 | 37004 ft | 534 kts | 51° |
| 2026-04-25 16:48 | 17.17619 | -58.11022 | 37003 ft | 533 kts | 51° |
| 2026-04-25 16:48 | 17.22200 | -58.04899 | 37003 ft | 533 kts | 51° |
| 2026-04-25 16:49 | 17.26748 | -57.98813 | 37006 ft | 533 kts | 51° |
| 2026-04-25 16:49 | 17.31323 | -57.92685 | 37007 ft | 535 kts | 51° |
| 2026-04-25 16:50 | 17.35904 | -57.86546 | 37008 ft | 534 kts | 51° |
| 2026-04-25 16:50 | 17.40486 | -57.80399 | 37008 ft | 534 kts | 51° |
| 2026-04-25 16:51 | 17.45059 | -57.74260 | 37008 ft | 534 kts | 51° |
| 2026-04-25 16:51 | 17.48861 | -57.69149 | 37008 ft | 534 kts | 51° |
| 2026-04-25 16:52 | 17.54208 | -57.61954 | 37012 ft | 535 kts | 51° |
| 2026-04-25 16:52 | 17.58759 | -57.55824 | 37011 ft | 535 kts | 51° |
| 2026-04-25 16:53 | 17.65620 | -57.46573 | 37011 ft | 535 kts | 51° |
| 2026-04-25 16:54 | 17.70200 | -57.40398 | 37014 ft | 535 kts | 51° |
| 2026-04-25 16:54 | 17.74767 | -57.34229 | 37022 ft | 534 kts | 51° |
| 2026-04-25 16:55 | 17.79341 | -57.28044 | 37015 ft | 536 kts | 51° |
| 2026-04-25 16:55 | 17.83910 | -57.21858 | 37014 ft | 536 kts | 51° |
| 2026-04-25 16:56 | 17.88477 | -57.15667 | 37014 ft | 536 kts | 51° |
| 2026-04-25 16:56 | 17.93049 | -57.09462 | 37011 ft | 536 kts | 51° |
| 2026-04-25 16:57 | 17.97563 | -57.03242 | 37027 ft | 535 kts | 54° |
| 2026-04-25 16:57 | 18.01539 | -56.96605 | 37015 ft | 537 kts | 62° |
| 2026-04-25 16:58 | 18.04833 | -56.89603 | 37013 ft | 537 kts | 65° |
| 2026-04-25 16:58 | 18.08034 | -56.82456 | 37010 ft | 537 kts | 65° |
| 2026-04-25 16:59 | 18.11234 | -56.75346 | 37014 ft | 536 kts | 65° |
| 2026-04-25 16:59 | 18.14423 | -56.68294 | 37014 ft | 536 kts | 65° |
| 2026-04-25 17:00 | 18.17631 | -56.61207 | 37013 ft | 536 kts | 65° |
| 2026-04-25 17:00 | 18.20865 | -56.54057 | 37015 ft | 536 kts | 65° |
| 2026-04-25 17:01 | 18.24041 | -56.47026 | 37010 ft | 532 kts | 65° |
| 2026-04-25 17:01 | 18.27210 | -56.40005 | 37011 ft | 529 kts | 65° |
| 2026-04-25 17:02 | 18.30363 | -56.33007 | 37011 ft | 529 kts | 65° |
| 2026-04-25 17:02 | 18.33517 | -56.25999 | 37010 ft | 528 kts | 65° |
| 2026-04-25 17:03 | 18.36658 | -56.19013 | 37011 ft | 527 kts | 65° |
| 2026-04-25 17:03 | 18.39804 | -56.12010 | 37012 ft | 529 kts | 65° |
| 2026-04-25 17:04 | 18.42956 | -56.04984 | 37012 ft | 529 kts | 65° |
| 2026-04-25 17:04 | 18.46106 | -55.97954 | 37014 ft | 529 kts | 65° |
| 2026-04-25 17:05 | 18.48720 | -55.92113 | 37015 ft | 529 kts | 65° |
| 2026-04-25 17:05 | 18.53944 | -55.80423 | 37018 ft | 529 kts | 65° |
| 2026-04-25 17:06 | 18.57078 | -55.73397 | 37017 ft | 529 kts | 65° |
| 2026-04-25 17:06 | 18.60217 | -55.66354 | 37018 ft | 531 kts | 65° |
| 2026-04-25 17:07 | 18.63358 | -55.59298 | 37016 ft | 531 kts | 65° |
| 2026-04-25 17:07 | 18.66497 | -55.52238 | 37009 ft | 531 kts | 65° |
| 2026-04-25 17:08 | 18.69628 | -55.45184 | 37016 ft | 530 kts | 65° |
| 2026-04-25 17:08 | 18.72758 | -55.38128 | 37018 ft | 530 kts | 65° |
| 2026-04-25 17:09 | 18.75886 | -55.31069 | 37020 ft | 530 kts | 65° |
| 2026-04-25 17:09 | 18.79009 | -55.24007 | 37018 ft | 532 kts | 65° |
| 2026-04-25 17:10 | 18.82138 | -55.16926 | 37020 ft | 532 kts | 65° |
| 2026-04-25 17:10 | 18.85248 | -55.09879 | 37019 ft | 532 kts | 65° |
| 2026-04-25 17:11 | 18.88377 | -55.02783 | 37021 ft | 532 kts | 65° |
| 2026-04-25 17:11 | 18.91500 | -54.95688 | 37019 ft | 531 kts | 65° |
| 2026-04-25 17:12 | 18.94611 | -54.88613 | 37021 ft | 530 kts | 65° |
| 2026-04-25 17:12 | 18.97727 | -54.81516 | 37025 ft | 533 kts | 65° |
| 2026-04-25 17:13 | 18.99816 | -54.76755 | 37027 ft | 534 kts | 65° |
| 2026-04-25 17:13 | 19.03973 | -54.67268 | 37024 ft | 532 kts | 65° |
| 2026-04-25 17:14 | 19.07067 | -54.60198 | 37024 ft | 532 kts | 65° |
| 2026-04-25 17:14 | 19.10173 | -54.53090 | 37025 ft | 532 kts | 65° |
| 2026-04-25 17:15 | 19.13276 | -54.45981 | 37023 ft | 531 kts | 65° |
| 2026-04-25 17:15 | 19.16378 | -54.38862 | 37029 ft | 533 kts | 65° |
| 2026-04-25 17:16 | 19.19487 | -54.31721 | 37027 ft | 534 kts | 65° |
| 2026-04-25 17:16 | 19.22595 | -54.24574 | 37021 ft | 534 kts | 65° |
| 2026-04-25 17:17 | 19.25700 | -54.17424 | 37026 ft | 533 kts | 65° |
| 2026-04-25 17:17 | 19.28792 | -54.10294 | 37028 ft | 532 kts | 65° |
| 2026-04-25 17:18 | 19.31886 | -54.03152 | 37027 ft | 532 kts | 65° |
| 2026-04-25 17:18 | 19.34976 | -53.96006 | 37029 ft | 534 kts | 65° |
| 2026-04-25 17:19 | 19.38048 | -53.88895 | 37028 ft | 534 kts | 65° |
| 2026-04-25 17:19 | 19.41143 | -53.81723 | 37027 ft | 534 kts | 65° |
| 2026-04-25 17:20 | 19.44235 | -53.74549 | 37033 ft | 534 kts | 65° |
| 2026-04-25 17:20 | 19.47314 | -53.67393 | 37028 ft | 532 kts | 65° |
| 2026-04-25 17:21 | 19.50385 | -53.60248 | 37045 ft | 532 kts | 65° |
| 2026-04-25 17:21 | 19.52944 | -53.54286 | 37036 ft | 535 kts | 65° |
| 2026-04-25 17:22 | 19.55511 | -53.48302 | 37033 ft | 536 kts | 65° |
| 2026-04-25 17:22 | 19.59117 | -53.39881 | 37030 ft | 536 kts | 65° |
| 2026-04-25 17:23 | 19.62198 | -53.32678 | 37031 ft | 536 kts | 65° |
| 2026-04-25 17:23 | 19.65281 | -53.25460 | 37030 ft | 536 kts | 65° |
| 2026-04-25 17:24 | 19.68352 | -53.18261 | 37046 ft | 534 kts | 65° |
| 2026-04-25 17:24 | 19.71423 | -53.11049 | 37032 ft | 537 kts | 65° |
| 2026-04-25 17:25 | 19.74478 | -53.03870 | 37033 ft | 537 kts | 65° |
| 2026-04-25 17:25 | 19.77554 | -52.96629 | 37031 ft | 536 kts | 65° |
| 2026-04-25 17:26 | 19.80620 | -52.89404 | 37032 ft | 536 kts | 65° |
| 2026-04-25 17:26 | 19.83686 | -52.82168 | 37035 ft | 536 kts | 65° |
| 2026-04-25 17:27 | 19.86744 | -52.74937 | 37037 ft | 537 kts | 65° |
| 2026-04-25 17:27 | 19.89292 | -52.68909 | 37036 ft | 537 kts | 65° |
| 2026-04-25 17:28 | 19.92878 | -52.60416 | 37033 ft | 537 kts | 65° |
| 2026-04-25 17:28 | 19.95935 | -52.53162 | 37033 ft | 537 kts | 65° |
| 2026-04-25 17:29 | 19.98986 | -52.45914 | 37031 ft | 536 kts | 65° |
| 2026-04-25 17:29 | 20.02013 | -52.38712 | 37033 ft | 535 kts | 65° |
| 2026-04-25 17:30 | 20.05057 | -52.31460 | 37035 ft | 536 kts | 65° |
| 2026-04-25 17:30 | 20.08097 | -52.24207 | 37030 ft | 535 kts | 65° |
| 2026-04-25 17:31 | 20.11123 | -52.16978 | 37036 ft | 534 kts | 65° |
| 2026-04-25 17:31 | 20.14150 | -52.09737 | 37036 ft | 534 kts | 65° |
| 2026-04-25 17:32 | 20.17148 | -52.02555 | 37034 ft | 534 kts | 65° |
| 2026-04-25 17:32 | 20.20166 | -51.95311 | 37037 ft | 535 kts | 65° |
| 2026-04-25 17:33 | 20.23191 | -51.88047 | 37033 ft | 535 kts | 65° |
| 2026-04-25 17:33 | 20.26210 | -51.80788 | 37035 ft | 535 kts | 65° |
| 2026-04-25 17:34 | 20.29229 | -51.73516 | 37033 ft | 535 kts | 65° |
| 2026-04-25 17:34 | 20.32239 | -51.66255 | 37036 ft | 535 kts | 65° |
| 2026-04-25 17:35 | 20.35252 | -51.58979 | 37050 ft | 535 kts | 65° |
| 2026-04-25 17:35 | 20.38239 | -51.51751 | 37038 ft | 536 kts | 65° |
| 2026-04-25 17:36 | 20.41246 | -51.44470 | 37039 ft | 536 kts | 65° |
| 2026-04-25 17:36 | 20.44255 | -51.37173 | 37039 ft | 536 kts | 65° |
| 2026-04-25 17:37 | 20.47268 | -51.29855 | 37201 ft | 539 kts | 65° |
| 2026-04-25 17:37 | 20.48775 | -51.26190 | 37579 ft | 537 kts | 65° |
| 2026-04-25 17:37 | 20.50274 | -51.22543 | 37992 ft | 534 kts | 65° |
| 2026-04-25 17:38 | 20.51765 | -51.18911 | 38345 ft | 532 kts | 65° |
| 2026-04-25 17:38 | 20.52749 | -51.16512 | 38510 ft | 533 kts | 65° |
| 2026-04-25 17:38 | 20.54740 | -51.11656 | 38761 ft | 534 kts | 65° |
| 2026-04-25 17:38 | 20.56233 | -51.08015 | 38930 ft | 535 kts | 65° |
| 2026-04-25 17:39 | 20.59212 | -51.00740 | 39030 ft | 534 kts | 65° |
| 2026-04-25 17:39 | 20.62170 | -50.93505 | 39036 ft | 534 kts | 65° |
| 2026-04-25 17:40 | 20.65139 | -50.86232 | 39041 ft | 534 kts | 65° |
| 2026-04-25 17:40 | 20.68107 | -50.78950 | 39043 ft | 534 kts | 65° |
| 2026-04-25 17:41 | 20.71079 | -50.71648 | 39041 ft | 536 kts | 65° |
| 2026-04-25 17:41 | 20.74057 | -50.64324 | 39035 ft | 536 kts | 65° |
| 2026-04-25 17:42 | 20.77022 | -50.57021 | 39041 ft | 534 kts | 65° |
| 2026-04-25 17:42 | 20.79978 | -50.49726 | 39043 ft | 534 kts | 65° |
| 2026-04-25 17:43 | 20.82935 | -50.42418 | 39053 ft | 535 kts | 65° |
| 2026-04-25 17:43 | 20.85892 | -50.35097 | 39043 ft | 536 kts | 65° |
| 2026-04-25 17:44 | 20.88855 | -50.27757 | 39043 ft | 536 kts | 65° |
| 2026-04-25 17:44 | 20.91789 | -50.20477 | 39046 ft | 536 kts | 65° |
| 2026-04-25 17:45 | 20.93761 | -50.15575 | 39040 ft | 535 kts | 65° |
| 2026-04-25 17:45 | 20.97683 | -50.05809 | 39055 ft | 535 kts | 65° |
| 2026-04-25 17:46 | 21.00338 | -49.98351 | 39045 ft | 537 kts | 71° |
| 2026-04-25 17:46 | 21.02281 | -49.90600 | 39042 ft | 538 kts | 75° |
| 2026-04-25 17:47 | 21.04051 | -49.82807 | 39044 ft | 538 kts | 75° |
| 2026-04-25 17:47 | 21.05834 | -49.75001 | 39043 ft | 538 kts | 75° |
| 2026-04-25 17:48 | 21.08513 | -49.63374 | 39043 ft | 537 kts | 75° |
| 2026-04-25 17:49 | 21.10307 | -49.55585 | 39046 ft | 538 kts | 75° |
| 2026-04-25 17:49 | 21.12098 | -49.47792 | 39040 ft | 538 kts | 75° |
| 2026-04-25 17:50 | 21.13890 | -49.39987 | 39043 ft | 538 kts | 75° |
| 2026-04-25 17:50 | 21.15674 | -49.32195 | 39042 ft | 538 kts | 75° |
| 2026-04-25 17:51 | 21.17454 | -49.24404 | 39041 ft | 537 kts | 75° |
| 2026-04-25 17:51 | 21.19231 | -49.16608 | 39042 ft | 537 kts | 75° |
| 2026-04-25 17:52 | 21.21003 | -49.08813 | 39056 ft | 537 kts | 75° |
| 2026-04-25 17:52 | 21.22768 | -49.01027 | 39043 ft | 537 kts | 75° |
| 2026-04-25 17:53 | 21.24534 | -48.93227 | 39042 ft | 537 kts | 75° |
| 2026-04-25 17:53 | 21.26282 | -48.85491 | 39048 ft | 537 kts | 75° |
| 2026-04-25 17:54 | 21.28040 | -48.77688 | 39046 ft | 537 kts | 75° |
| 2026-04-25 17:54 | 21.29792 | -48.69896 | 39045 ft | 537 kts | 75° |
| 2026-04-25 17:55 | 21.31543 | -48.62089 | 39057 ft | 537 kts | 75° |
| 2026-04-25 17:55 | 21.33284 | -48.54299 | 39048 ft | 536 kts | 75° |
| 2026-04-25 17:56 | 21.35027 | -48.46499 | 39051 ft | 536 kts | 75° |
| 2026-04-25 17:56 | 21.36765 | -48.38697 | 39049 ft | 536 kts | 75° |
| 2026-04-25 17:57 | 21.38497 | -48.30904 | 39047 ft | 536 kts | 75° |
| 2026-04-25 17:57 | 21.40216 | -48.23147 | 39044 ft | 536 kts | 75° |
| 2026-04-25 17:58 | 21.41944 | -48.15336 | 39047 ft | 536 kts | 75° |
| 2026-04-25 17:58 | 21.43669 | -48.07524 | 39048 ft | 536 kts | 75° |
| 2026-04-25 17:59 | 21.45389 | -47.99709 | 39040 ft | 536 kts | 75° |
| 2026-04-25 17:59 | 21.47104 | -47.91908 | 39047 ft | 536 kts | 75° |
| 2026-04-25 18:00 | 21.48526 | -47.85418 | 39047 ft | 536 kts | 75° |
| 2026-04-25 18:00 | 21.50509 | -47.76354 | 39047 ft | 536 kts | 76° |
| 2026-04-25 18:01 | 21.52213 | -47.68538 | 39065 ft | 536 kts | 76° |
| 2026-04-25 18:01 | 21.53907 | -47.60721 | 39053 ft | 536 kts | 75° |
| 2026-04-25 18:02 | 21.55609 | -47.52900 | 39047 ft | 536 kts | 75° |
| 2026-04-25 18:02 | 21.57303 | -47.45086 | 39052 ft | 536 kts | 75° |
| 2026-04-25 18:03 | 21.58991 | -47.37270 | 39045 ft | 536 kts | 76° |
| 2026-04-25 18:03 | 21.60681 | -47.29434 | 39049 ft | 537 kts | 76° |
| 2026-04-25 18:04 | 21.62363 | -47.21607 | 39066 ft | 537 kts | 75° |
| 2026-04-25 18:04 | 21.64037 | -47.13783 | 39052 ft | 536 kts | 75° |
| 2026-04-25 18:05 | 21.65705 | -47.05999 | 39047 ft | 537 kts | 75° |
| 2026-04-25 18:05 | 21.67379 | -46.98160 | 39049 ft | 536 kts | 75° |
| 2026-04-25 18:06 | 21.69050 | -46.90316 | 39054 ft | 537 kts | 75° |
| 2026-04-25 18:06 | 21.70715 | -46.82477 | 39052 ft | 537 kts | 75° |
| 2026-04-25 18:07 | 21.72370 | -46.74665 | 39061 ft | 536 kts | 75° |
| 2026-04-25 18:07 | 21.74022 | -46.66846 | 39054 ft | 535 kts | 75° |
| 2026-04-25 18:08 | 21.75673 | -46.59021 | 39051 ft | 535 kts | 75° |
| 2026-04-25 18:08 | 21.77317 | -46.51205 | 39052 ft | 535 kts | 75° |
| 2026-04-25 18:09 | 21.78962 | -46.43369 | 39056 ft | 535 kts | 75° |
| 2026-04-25 18:09 | 21.80325 | -46.36858 | 39053 ft | 536 kts | 75° |
| 2026-04-25 18:10 | 21.82230 | -46.27732 | 39065 ft | 536 kts | 75° |
| 2026-04-25 18:10 | 21.83860 | -46.19903 | 39060 ft | 535 kts | 75° |
| 2026-04-25 18:11 | 21.85217 | -46.13377 | 39058 ft | 535 kts | 75° |
| 2026-04-25 18:11 | 21.86840 | -46.05549 | 39055 ft | 535 kts | 75° |
| 2026-04-25 18:12 | 21.88460 | -45.97719 | 39058 ft | 535 kts | 75° |
| 2026-04-25 18:12 | 21.90079 | -45.89873 | 39055 ft | 535 kts | 76° |
| 2026-04-25 18:13 | 21.91693 | -45.82019 | 39066 ft | 536 kts | 75° |
| 2026-04-25 18:13 | 21.93307 | -45.74158 | 39057 ft | 536 kts | 75° |
| 2026-04-25 18:14 | 21.95715 | -45.62388 | 39060 ft | 535 kts | 75° |
| 2026-04-25 18:14 | 21.97316 | -45.54542 | 39059 ft | 535 kts | 76° |
| 2026-04-25 18:15 | 21.98910 | -45.46703 | 39066 ft | 535 kts | 76° |
| 2026-04-25 18:15 | 22.00493 | -45.38908 | 39068 ft | 536 kts | 76° |
| 2026-04-25 18:16 | 22.02087 | -45.31030 | 39061 ft | 536 kts | 76° |
| 2026-04-25 18:17 | 22.04468 | -45.19225 | 39063 ft | 536 kts | 76° |
| 2026-04-25 18:17 | 22.06050 | -45.11348 | 39066 ft | 536 kts | 76° |
| 2026-04-25 18:18 | 22.07627 | -45.03488 | 39060 ft | 536 kts | 76° |
| 2026-04-25 18:18 | 22.09205 | -44.95613 | 39066 ft | 538 kts | 76° |
| 2026-04-25 18:19 | 22.10780 | -44.87713 | 39056 ft | 538 kts | 76° |
| 2026-04-25 18:19 | 22.12348 | -44.79822 | 39069 ft | 536 kts | 76° |
| 2026-04-25 18:20 | 22.13904 | -44.71985 | 39060 ft | 537 kts | 76° |
| 2026-04-25 18:20 | 22.15468 | -44.64087 | 39069 ft | 537 kts | 76° |
| 2026-04-25 18:21 | 22.17026 | -44.56197 | 39065 ft | 538 kts | 76° |
| 2026-04-25 18:21 | 22.18585 | -44.48278 | 39065 ft | 538 kts | 76° |
| 2026-04-25 18:22 | 22.20138 | -44.40369 | 39066 ft | 538 kts | 76° |
| 2026-04-25 18:22 | 22.21683 | -44.32475 | 39065 ft | 539 kts | 76° |
| 2026-04-25 18:23 | 22.23231 | -44.24549 | 39067 ft | 539 kts | 76° |
| 2026-04-25 18:23 | 22.24778 | -44.16606 | 39071 ft | 540 kts | 76° |
| 2026-04-25 18:24 | 22.26320 | -44.08668 | 39073 ft | 540 kts | 76° |
| 2026-04-25 18:24 | 22.27861 | -44.00713 | 39074 ft | 540 kts | 76° |
| 2026-04-25 18:25 | 22.29400 | -43.92743 | 39071 ft | 541 kts | 76° |
| 2026-04-25 18:25 | 22.30927 | -43.84818 | 39070 ft | 541 kts | 76° |
| 2026-04-25 18:26 | 22.32467 | -43.76796 | 39071 ft | 541 kts | 76° |
| 2026-04-25 18:26 | 22.33988 | -43.68864 | 39073 ft | 541 kts | 76° |
| 2026-04-25 18:27 | 22.35511 | -43.60891 | 39075 ft | 541 kts | 76° |
| 2026-04-25 18:27 | 22.37034 | -43.52897 | 39073 ft | 542 kts | 76° |
| 2026-04-25 18:28 | 22.38552 | -43.44911 | 39073 ft | 542 kts | 76° |
| 2026-04-25 18:28 | 22.40066 | -43.36910 | 39074 ft | 542 kts | 76° |
| 2026-04-25 18:29 | 22.42333 | -43.24916 | 39067 ft | 541 kts | 76° |
| 2026-04-25 18:30 | 22.45320 | -43.09016 | 39077 ft | 540 kts | 76° |
| 2026-04-25 18:30 | 22.46813 | -43.01031 | 39082 ft | 540 kts | 76° |
| 2026-04-25 18:31 | 22.48319 | -42.92953 | 39076 ft | 541 kts | 76° |
| 2026-04-25 18:31 | 22.49804 | -42.84971 | 39076 ft | 541 kts | 76° |
| 2026-04-25 18:32 | 22.51287 | -42.76972 | 39077 ft | 541 kts | 76° |
| 2026-04-25 18:32 | 22.52764 | -42.68986 | 39075 ft | 541 kts | 76° |
| 2026-04-25 18:33 | 22.54241 | -42.60985 | 39088 ft | 541 kts | 76° |
| 2026-04-25 18:33 | 22.55711 | -42.52977 | 39080 ft | 541 kts | 76° |
| 2026-04-25 18:34 | 22.57169 | -42.45030 | 39079 ft | 541 kts | 76° |
| 2026-04-25 18:34 | 22.58634 | -42.37015 | 39080 ft | 541 kts | 76° |
| 2026-04-25 18:35 | 22.60093 | -42.29011 | 39079 ft | 541 kts | 76° |
| 2026-04-25 18:35 | 22.61551 | -42.20992 | 39079 ft | 541 kts | 76° |
| 2026-04-25 18:36 | 22.63003 | -42.12972 | 39081 ft | 541 kts | 76° |
| 2026-04-25 18:36 | 22.64451 | -42.04965 | 39084 ft | 541 kts | 76° |
| 2026-04-25 18:37 | 22.65893 | -41.96957 | 39089 ft | 541 kts | 76° |
| 2026-04-25 18:37 | 22.67333 | -41.88936 | 39085 ft | 541 kts | 76° |
| 2026-04-25 18:38 | 22.68768 | -41.80928 | 39084 ft | 541 kts | 76° |
| 2026-04-25 18:38 | 22.70199 | -41.72906 | 39088 ft | 541 kts | 76° |
| 2026-04-25 18:39 | 22.71628 | -41.64878 | 39085 ft | 541 kts | 76° |
| 2026-04-25 18:39 | 22.73051 | -41.56861 | 39067 ft | 541 kts | 76° |
| 2026-04-25 18:40 | 22.74462 | -41.48889 | 39082 ft | 541 kts | 76° |
| 2026-04-25 18:40 | 22.75877 | -41.40865 | 39083 ft | 541 kts | 76° |
| 2026-04-25 18:41 | 22.77288 | -41.32839 | 39092 ft | 541 kts | 76° |
| 2026-04-25 18:41 | 22.78691 | -41.24828 | 39090 ft | 540 kts | 76° |
| 2026-04-25 18:42 | 22.79629 | -41.19468 | 39087 ft | 540 kts | 76° |
| 2026-04-25 18:42 | 22.81485 | -41.08825 | 39087 ft | 541 kts | 76° |
| 2026-04-25 18:43 | 22.82878 | -41.00807 | 39089 ft | 541 kts | 76° |
| 2026-04-25 18:43 | 22.84267 | -40.92787 | 39089 ft | 541 kts | 76° |
| 2026-04-25 18:44 | 22.85653 | -40.84751 | 39088 ft | 541 kts | 76° |
| 2026-04-25 18:44 | 22.87035 | -40.76723 | 39087 ft | 541 kts | 76° |
| 2026-04-25 18:45 | 22.88412 | -40.68692 | 39098 ft | 541 kts | 76° |
| 2026-04-25 18:45 | 22.89788 | -40.60639 | 39086 ft | 542 kts | 76° |
| 2026-04-25 18:46 | 22.91165 | -40.52566 | 39097 ft | 542 kts | 76° |
| 2026-04-25 18:46 | 22.92532 | -40.44517 | 39095 ft | 542 kts | 76° |
| 2026-04-25 18:47 | 22.93888 | -40.36500 | 39092 ft | 542 kts | 76° |
| 2026-04-25 18:47 | 22.95249 | -40.28439 | 39089 ft | 543 kts | 76° |
| 2026-04-25 18:48 | 22.96604 | -40.20373 | 39093 ft | 543 kts | 76° |
| 2026-04-25 18:48 | 22.97958 | -40.12286 | 39092 ft | 543 kts | 76° |
| 2026-04-25 18:49 | 22.98882 | -40.04116 | 39089 ft | 546 kts | 85° |
| 2026-04-25 18:49 | 22.98656 | -39.95857 | 39093 ft | 549 kts | 95° |
| 2026-04-25 18:50 | 22.97246 | -39.87703 | 39092 ft | 548 kts | 104° |
| 2026-04-25 18:50 | 22.95286 | -39.79699 | 39099 ft | 548 kts | 105° |
| 2026-04-25 18:51 | 22.93978 | -39.74393 | 39095 ft | 550 kts | 105° |
| 2026-04-25 18:51 | 22.91387 | -39.63655 | 39097 ft | 550 kts | 104° |
| 2026-04-25 18:52 | 22.89465 | -39.55614 | 39103 ft | 550 kts | 104° |
| 2026-04-25 18:52 | 22.87536 | -39.47549 | 39078 ft | 551 kts | 104° |
| 2026-04-25 18:53 | 22.85608 | -39.39499 | 39091 ft | 549 kts | 104° |
| 2026-04-25 18:53 | 22.83690 | -39.31522 | 39097 ft | 549 kts | 104° |
| 2026-04-25 18:54 | 22.80779 | -39.19450 | 39092 ft | 550 kts | 104° |
| 2026-04-25 18:55 | 22.78834 | -39.11405 | 39098 ft | 550 kts | 104° |
| 2026-04-25 18:55 | 22.77214 | -39.04722 | 39095 ft | 551 kts | 104° |
| 2026-04-25 18:56 | 22.75264 | -38.96686 | 39086 ft | 550 kts | 104° |
| 2026-04-25 18:56 | 22.73312 | -38.88666 | 39093 ft | 549 kts | 105° |
| 2026-04-25 18:57 | 22.71360 | -38.80667 | 39095 ft | 549 kts | 105° |
| 2026-04-25 18:57 | 22.69402 | -38.72659 | 39095 ft | 548 kts | 105° |
| 2026-04-25 18:58 | 22.67440 | -38.64653 | 39104 ft | 549 kts | 105° |
| 2026-04-25 18:58 | 22.64485 | -38.52635 | 39089 ft | 550 kts | 105° |
| 2026-04-25 18:59 | 22.60552 | -38.36696 | 39095 ft | 548 kts | 105° |
| 2026-04-25 19:00 | 22.57582 | -38.24711 | 39097 ft | 548 kts | 105° |
| 2026-04-25 19:01 | 22.54604 | -38.12735 | 39099 ft | 549 kts | 105° |
| 2026-04-25 19:01 | 22.52609 | -38.04734 | 39096 ft | 549 kts | 105° |
| 2026-04-25 19:02 | 22.49612 | -37.92748 | 39098 ft | 550 kts | 105° |
| 2026-04-25 19:03 | 22.46938 | -37.82090 | 39098 ft | 551 kts | 105° |
| 2026-04-25 19:03 | 22.44598 | -37.72787 | 39092 ft | 551 kts | 105° |
| 2026-04-25 19:04 | 22.41567 | -37.60775 | 39093 ft | 552 kts | 105° |
| 2026-04-25 19:05 | 22.37511 | -37.44763 | 39097 ft | 550 kts | 105° |
| 2026-04-25 19:06 | 22.35482 | -37.36780 | 39095 ft | 551 kts | 105° |
| 2026-04-25 19:06 | 22.32438 | -37.24838 | 39091 ft | 551 kts | 105° |
| 2026-04-25 19:07 | 22.29367 | -37.12834 | 39095 ft | 552 kts | 105° |
| 2026-04-25 19:08 | 22.26295 | -37.00852 | 39089 ft | 550 kts | 105° |
| 2026-04-25 19:09 | 22.22534 | -36.86250 | 39100 ft | 551 kts | 105° |
| 2026-04-25 19:10 | 22.19090 | -36.72928 | 39097 ft | 551 kts | 105° |
| 2026-04-25 19:10 | 22.17017 | -36.64934 | 39096 ft | 552 kts | 105° |
| 2026-04-25 19:11 | 22.14956 | -36.57002 | 39098 ft | 552 kts | 105° |
| 2026-04-25 19:11 | 22.12882 | -36.49030 | 39092 ft | 550 kts | 105° |
| 2026-04-25 19:12 | 22.10804 | -36.41072 | 39091 ft | 549 kts | 105° |
| 2026-04-25 19:12 | 22.08724 | -36.33122 | 39094 ft | 549 kts | 105° |
| 2026-04-25 19:13 | 22.06644 | -36.25188 | 39106 ft | 549 kts | 105° |
| 2026-04-25 19:13 | 22.04553 | -36.17234 | 39099 ft | 550 kts | 105° |
| 2026-04-25 19:14 | 22.02455 | -36.09272 | 39095 ft | 551 kts | 105° |
| 2026-04-25 19:14 | 22.00347 | -36.01331 | 39083 ft | 549 kts | 107° |
| 2026-04-25 19:15 | 21.97829 | -35.93614 | 39097 ft | 548 kts | 111° |
| 2026-04-25 19:15 | 21.95101 | -35.85915 | 39098 ft | 549 kts | 111° |
| 2026-04-25 19:16 | 21.92369 | -35.78215 | 39097 ft | 549 kts | 111° |
| 2026-04-25 19:16 | 21.89645 | -35.70511 | 39097 ft | 550 kts | 111° |
| 2026-04-25 19:17 | 21.86921 | -35.62804 | 39098 ft | 550 kts | 111° |
| 2026-04-25 19:17 | 21.84187 | -35.55077 | 39089 ft | 549 kts | 111° |
| 2026-04-25 19:18 | 21.81482 | -35.47446 | 39100 ft | 548 kts | 111° |
| 2026-04-25 19:18 | 21.78755 | -35.39767 | 39096 ft | 549 kts | 111° |
| 2026-04-25 19:19 | 21.76020 | -35.32075 | 39098 ft | 549 kts | 111° |
| 2026-04-25 19:19 | 21.73280 | -35.24386 | 39101 ft | 549 kts | 111° |
| 2026-04-25 19:20 | 21.70538 | -35.16703 | 39096 ft | 550 kts | 111° |
| 2026-04-25 19:20 | 21.67795 | -35.09026 | 39088 ft | 548 kts | 111° |
| 2026-04-25 19:21 | 21.65053 | -35.01369 | 39090 ft | 547 kts | 111° |
| 2026-04-25 19:21 | 21.60932 | -34.89885 | 39096 ft | 549 kts | 111° |
| 2026-04-25 19:22 | 21.58193 | -34.82267 | 39095 ft | 549 kts | 111° |
| 2026-04-25 19:23 | 21.54054 | -34.70779 | 39100 ft | 549 kts | 111° |
| 2026-04-25 19:23 | 21.49906 | -34.59293 | 39090 ft | 547 kts | 112° |
| 2026-04-25 19:24 | 21.47145 | -34.51664 | 39092 ft | 547 kts | 112° |
| 2026-04-25 19:25 | 21.41620 | -34.36437 | 39093 ft | 549 kts | 112° |
| 2026-04-25 19:25 | 21.38841 | -34.28796 | 39089 ft | 549 kts | 112° |
| 2026-04-25 19:26 | 21.36060 | -34.21160 | 39092 ft | 548 kts | 112° |
| 2026-04-25 19:26 | 21.33282 | -34.13547 | 39089 ft | 547 kts | 112° |
| 2026-04-25 19:27 | 21.30969 | -34.07216 | 39088 ft | 547 kts | 112° |
| 2026-04-25 19:27 | 21.27713 | -33.98321 | 39089 ft | 547 kts | 112° |
| 2026-04-25 19:28 | 21.24940 | -33.90757 | 39089 ft | 547 kts | 112° |
| 2026-04-25 19:28 | 21.22144 | -33.83143 | 39089 ft | 547 kts | 112° |
| 2026-04-25 19:29 | 21.19350 | -33.75547 | 39062 ft | 547 kts | 112° |
| 2026-04-25 19:29 | 21.16559 | -33.67969 | 39093 ft | 544 kts | 112° |
| 2026-04-25 19:30 | 21.13765 | -33.60398 | 39089 ft | 545 kts | 112° |
| 2026-04-25 19:30 | 21.10970 | -33.52836 | 39082 ft | 545 kts | 112° |
| 2026-04-25 19:31 | 21.08172 | -33.45277 | 39087 ft | 545 kts | 112° |
| 2026-04-25 19:31 | 21.05385 | -33.37758 | 39086 ft | 546 kts | 112° |
| 2026-04-25 19:32 | 21.02577 | -33.30195 | 39083 ft | 546 kts | 112° |
| 2026-04-25 19:32 | 21.00692 | -33.25124 | 39083 ft | 546 kts | 112° |
| 2026-04-25 19:33 | 20.96939 | -33.15048 | 39092 ft | 546 kts | 112° |
| 2026-04-25 19:33 | 20.94118 | -33.07483 | 39083 ft | 547 kts | 112° |
| 2026-04-25 19:34 | 20.91284 | -32.99899 | 39079 ft | 548 kts | 112° |
| 2026-04-25 19:34 | 20.88465 | -32.92369 | 39078 ft | 548 kts | 112° |
| 2026-04-25 19:35 | 20.85628 | -32.84799 | 39084 ft | 548 kts | 112° |
| 2026-04-25 19:35 | 20.82789 | -32.77232 | 39072 ft | 546 kts | 112° |
| 2026-04-25 19:36 | 20.79955 | -32.69697 | 39074 ft | 546 kts | 112° |
| 2026-04-25 19:36 | 20.77114 | -32.62153 | 39077 ft | 546 kts | 112° |
| 2026-04-25 19:37 | 20.74274 | -32.54622 | 39079 ft | 546 kts | 113° |
| 2026-04-25 19:37 | 20.71427 | -32.47086 | 39079 ft | 546 kts | 113° |
| 2026-04-25 19:38 | 20.68576 | -32.39549 | 39075 ft | 547 kts | 113° |
| 2026-04-25 19:38 | 20.65719 | -32.32008 | 39071 ft | 546 kts | 113° |
| 2026-04-25 19:39 | 20.62869 | -32.24496 | 39071 ft | 545 kts | 113° |
| 2026-04-25 19:39 | 20.60017 | -32.16991 | 39079 ft | 545 kts | 113° |
| 2026-04-25 19:40 | 20.57161 | -32.09489 | 39078 ft | 545 kts | 113° |
| 2026-04-25 19:40 | 20.54301 | -32.01988 | 39073 ft | 545 kts | 113° |
| 2026-04-25 19:41 | 20.51436 | -31.94485 | 39073 ft | 545 kts | 113° |
| 2026-04-25 19:41 | 20.49537 | -31.89519 | 39075 ft | 545 kts | 113° |
| 2026-04-25 19:42 | 20.46182 | -31.80766 | 39064 ft | 543 kts | 113° |
| 2026-04-25 19:42 | 20.43316 | -31.73293 | 39072 ft | 543 kts | 114° |
| 2026-04-25 19:43 | 20.40209 | -31.65954 | 39068 ft | 542 kts | 116° |
| 2026-04-25 19:43 | 20.36994 | -31.58654 | 39069 ft | 543 kts | 116° |
| 2026-04-25 19:44 | 20.33802 | -31.51418 | 39078 ft | 543 kts | 116° |
| 2026-04-25 19:44 | 20.30591 | -31.44128 | 39066 ft | 543 kts | 116° |
| 2026-04-25 19:45 | 20.27376 | -31.36839 | 39057 ft | 542 kts | 116° |
| 2026-04-25 19:45 | 20.24166 | -31.29563 | 39062 ft | 541 kts | 116° |
| 2026-04-25 19:46 | 20.20961 | -31.22306 | 39065 ft | 541 kts | 116° |
| 2026-04-25 19:46 | 20.17746 | -31.15040 | 39063 ft | 541 kts | 116° |
| 2026-04-25 19:47 | 20.14534 | -31.07789 | 39066 ft | 541 kts | 116° |
| 2026-04-25 19:47 | 20.11319 | -31.00541 | 39066 ft | 541 kts | 116° |
| 2026-04-25 19:48 | 20.08101 | -30.93297 | 39058 ft | 540 kts | 116° |
| 2026-04-25 19:48 | 20.04909 | -30.86120 | 39061 ft | 539 kts | 116° |
| 2026-04-25 19:49 | 20.02214 | -30.80068 | 39064 ft | 539 kts | 116° |
| 2026-04-25 19:49 | 19.98468 | -30.71667 | 39061 ft | 539 kts | 116° |
| 2026-04-25 19:50 | 19.93638 | -30.60853 | 39063 ft | 540 kts | 117° |
| 2026-04-25 19:51 | 19.90412 | -30.53643 | 39063 ft | 540 kts | 117° |
| 2026-04-25 19:51 | 19.87180 | -30.46432 | 39054 ft | 538 kts | 116° |
| 2026-04-25 19:52 | 19.83956 | -30.39245 | 39060 ft | 537 kts | 116° |
| 2026-04-25 19:52 | 19.80736 | -30.32073 | 39060 ft | 538 kts | 117° |
| 2026-04-25 19:53 | 19.77525 | -30.24933 | 39059 ft | 538 kts | 117° |
| 2026-04-25 19:53 | 19.74294 | -30.17759 | 39057 ft | 538 kts | 117° |
| 2026-04-25 19:54 | 19.71039 | -30.10541 | 39068 ft | 538 kts | 117° |
| 2026-04-25 19:54 | 19.67817 | -30.03403 | 39042 ft | 539 kts | 117° |
| 2026-04-25 19:55 | 19.64583 | -29.96251 | 39047 ft | 536 kts | 117° |
| 2026-04-25 19:55 | 19.61352 | -29.89112 | 39044 ft | 536 kts | 117° |
| 2026-04-25 19:56 | 19.58112 | -29.81964 | 39062 ft | 536 kts | 117° |
| 2026-04-25 19:56 | 19.54874 | -29.74827 | 39046 ft | 537 kts | 117° |
| 2026-04-25 19:57 | 19.51624 | -29.67676 | 39052 ft | 537 kts | 117° |
| 2026-04-25 19:57 | 19.48394 | -29.60577 | 39046 ft | 537 kts | 117° |
| 2026-04-25 19:58 | 19.45151 | -29.53457 | 39057 ft | 534 kts | 117° |
| 2026-04-25 19:58 | 19.41907 | -29.46345 | 39045 ft | 535 kts | 117° |
| 2026-04-25 19:59 | 19.38661 | -29.39236 | 39049 ft | 535 kts | 117° |
| 2026-04-25 19:59 | 19.35416 | -29.32139 | 39048 ft | 535 kts | 117° |
| 2026-04-25 20:00 | 19.32169 | -29.25046 | 39046 ft | 535 kts | 117° |
| 2026-04-25 20:00 | 19.28909 | -29.17933 | 39043 ft | 536 kts | 117° |
| 2026-04-25 20:01 | 19.24014 | -29.07272 | 39038 ft | 534 kts | 117° |
| 2026-04-25 20:01 | 19.20796 | -29.00270 | 39041 ft | 531 kts | 117° |
| 2026-04-25 20:02 | 19.17556 | -28.93234 | 39046 ft | 532 kts | 117° |
| 2026-04-25 20:02 | 19.14307 | -28.86185 | 39043 ft | 533 kts | 117° |
| 2026-04-25 20:03 | 19.11047 | -28.79122 | 39043 ft | 533 kts | 117° |
| 2026-04-25 20:03 | 19.07785 | -28.72061 | 39034 ft | 533 kts | 117° |
| 2026-04-25 20:04 | 19.04526 | -28.65015 | 39031 ft | 533 kts | 117° |
| 2026-04-25 20:04 | 19.01254 | -28.57953 | 39046 ft | 534 kts | 117° |
| 2026-04-25 20:05 | 18.98006 | -28.50949 | 39029 ft | 534 kts | 117° |
| 2026-04-25 20:05 | 18.94706 | -28.43841 | 39036 ft | 534 kts | 117° |
| 2026-04-25 20:06 | 18.91453 | -28.36841 | 39028 ft | 534 kts | 117° |
| 2026-04-25 20:06 | 18.88169 | -28.29786 | 39042 ft | 534 kts | 117° |
| 2026-04-25 20:07 | 18.84883 | -28.22735 | 39037 ft | 534 kts | 117° |
| 2026-04-25 20:07 | 18.81595 | -28.15687 | 39023 ft | 533 kts | 117° |
| 2026-04-25 20:08 | 18.78325 | -28.08683 | 39032 ft | 530 kts | 117° |
| 2026-04-25 20:08 | 18.75061 | -28.01704 | 39029 ft | 530 kts | 117° |
| 2026-04-25 20:09 | 18.71788 | -27.94716 | 39028 ft | 530 kts | 117° |
| 2026-04-25 20:09 | 18.68519 | -27.87741 | 39032 ft | 530 kts | 117° |
| 2026-04-25 20:10 | 18.65263 | -27.80803 | 39029 ft | 530 kts | 117° |
| 2026-04-25 20:10 | 18.61988 | -27.73833 | 39031 ft | 530 kts | 118° |
| 2026-04-25 20:11 | 18.58703 | -27.66848 | 39011 ft | 530 kts | 118° |
| 2026-04-25 20:11 | 18.55427 | -27.59890 | 39022 ft | 528 kts | 118° |
| 2026-04-25 20:12 | 18.52153 | -27.52947 | 39026 ft | 528 kts | 118° |
| 2026-04-25 20:12 | 18.49987 | -27.48359 | 39029 ft | 528 kts | 118° |
| 2026-04-25 20:13 | 18.45624 | -27.39126 | 39026 ft | 528 kts | 118° |
| 2026-04-25 20:13 | 18.42341 | -27.32187 | 39022 ft | 528 kts | 118° |
| 2026-04-25 20:14 | 18.39062 | -27.25263 | 39025 ft | 528 kts | 118° |
| 2026-04-25 20:14 | 18.35773 | -27.18329 | 39013 ft | 527 kts | 118° |
| 2026-04-25 20:15 | 18.32496 | -27.11424 | 39021 ft | 525 kts | 118° |
| 2026-04-25 20:15 | 18.29241 | -27.04577 | 39021 ft | 525 kts | 118° |
| 2026-04-25 20:16 | 18.25969 | -26.97700 | 39016 ft | 525 kts | 118° |
| 2026-04-25 20:16 | 18.22689 | -26.90816 | 39017 ft | 525 kts | 118° |
| 2026-04-25 20:17 | 18.19412 | -26.83944 | 39019 ft | 525 kts | 118° |
| 2026-04-25 20:17 | 18.16129 | -26.77068 | 39017 ft | 525 kts | 118° |
| 2026-04-25 20:18 | 18.12842 | -26.70191 | 39005 ft | 525 kts | 118° |
| 2026-04-25 20:18 | 18.09577 | -26.63371 | 39013 ft | 524 kts | 118° |
| 2026-04-25 20:19 | 18.06299 | -26.56526 | 39011 ft | 524 kts | 118° |
| 2026-04-25 20:19 | 18.03017 | -26.49683 | 39013 ft | 524 kts | 118° |
| 2026-04-25 20:20 | 17.99727 | -26.42830 | 39014 ft | 524 kts | 118° |
| 2026-04-25 20:20 | 17.96434 | -26.35981 | 39012 ft | 524 kts | 118° |
| 2026-04-25 20:21 | 17.93144 | -26.29145 | 39010 ft | 524 kts | 118° |
| 2026-04-25 20:21 | 17.89846 | -26.22299 | 39016 ft | 524 kts | 118° |
| 2026-04-25 20:22 | 17.87664 | -26.17774 | 39002 ft | 524 kts | 118° |
| 2026-04-25 20:22 | 17.83273 | -26.08688 | 39007 ft | 523 kts | 118° |
| 2026-04-25 20:23 | 17.79975 | -26.01871 | 39007 ft | 523 kts | 119° |
| 2026-04-25 20:23 | 17.76530 | -25.95134 | 39008 ft | 522 kts | 121° |
| 2026-04-25 20:24 | 17.73024 | -25.88447 | 39008 ft | 523 kts | 121° |
| 2026-04-25 20:24 | 17.69515 | -25.81741 | 39005 ft | 523 kts | 121° |
| 2026-04-25 20:25 | 17.66019 | -25.75044 | 39005 ft | 523 kts | 121° |
| 2026-04-25 20:25 | 17.62522 | -25.68343 | 38996 ft | 522 kts | 121° |
| 2026-04-25 20:26 | 17.59036 | -25.61670 | 39003 ft | 521 kts | 121° |
| 2026-04-25 20:26 | 17.55571 | -25.55046 | 39003 ft | 521 kts | 121° |
| 2026-04-25 20:27 | 17.52076 | -25.48371 | 39005 ft | 521 kts | 121° |
| 2026-04-25 20:27 | 17.48578 | -25.41698 | 39004 ft | 521 kts | 121° |
| 2026-04-25 20:28 | 17.45083 | -25.35035 | 39002 ft | 521 kts | 121° |
| 2026-04-25 20:28 | 17.41582 | -25.28369 | 39000 ft | 521 kts | 121° |
| 2026-04-25 20:29 | 17.38675 | -25.22837 | 38986 ft | 520 kts | 121° |
| 2026-04-25 20:29 | 17.34617 | -25.15124 | 38993 ft | 518 kts | 121° |
| 2026-04-25 20:30 | 17.31694 | -25.09577 | 39011 ft | 518 kts | 121° |
| 2026-04-25 20:30 | 17.28225 | -25.02996 | 38995 ft | 518 kts | 121° |
| 2026-04-25 20:31 | 17.24731 | -24.96373 | 38997 ft | 519 kts | 121° |
| 2026-04-25 20:31 | 17.21240 | -24.89763 | 38994 ft | 519 kts | 121° |
| 2026-04-25 20:32 | 17.17744 | -24.83152 | 38991 ft | 519 kts | 121° |
| 2026-04-25 20:32 | 17.14243 | -24.76539 | 38998 ft | 518 kts | 121° |
| 2026-04-25 20:33 | 17.10749 | -24.69946 | 38992 ft | 518 kts | 121° |
| 2026-04-25 20:33 | 17.07847 | -24.64472 | 38986 ft | 518 kts | 121° |
| 2026-04-25 20:34 | 17.03752 | -24.56756 | 38988 ft | 518 kts | 121° |
| 2026-04-25 20:34 | 17.00266 | -24.50196 | 38988 ft | 518 kts | 121° |
| 2026-04-25 20:35 | 16.96772 | -24.43625 | 38944 ft | 510 kts | 121° |
| 2026-04-25 20:35 | 16.95067 | -24.40416 | 38960 ft | 499 kts | 121° |
| 2026-04-25 20:35 | 16.93382 | -24.37251 | 38960 ft | 496 kts | 121° |
| 2026-04-25 20:36 | 16.90020 | -24.30948 | 38975 ft | 496 kts | 121° |
| 2026-04-25 20:36 | 16.86660 | -24.24654 | 38968 ft | 495 kts | 121° |
| 2026-04-25 20:37 | 16.83299 | -24.18359 | 38972 ft | 495 kts | 121° |
| 2026-04-25 20:37 | 16.79943 | -24.12078 | 38975 ft | 495 kts | 121° |
| 2026-04-25 20:38 | 16.76579 | -24.05790 | 38977 ft | 495 kts | 121° |
| 2026-04-25 20:38 | 16.73223 | -23.99519 | 38981 ft | 495 kts | 121° |
| 2026-04-25 20:39 | 16.69857 | -23.93239 | 38980 ft | 495 kts | 121° |
| 2026-04-25 20:39 | 16.67056 | -23.88017 | 38978 ft | 495 kts | 121° |
| 2026-04-25 20:40 | 16.63116 | -23.80677 | 38976 ft | 495 kts | 121° |
| 2026-04-25 20:40 | 16.59746 | -23.74405 | 38967 ft | 495 kts | 121° |
| 2026-04-25 20:41 | 16.56390 | -23.68164 | 38964 ft | 495 kts | 121° |
| 2026-04-25 20:41 | 16.53015 | -23.61895 | 38962 ft | 495 kts | 121° |
| 2026-04-25 20:42 | 16.49637 | -23.55626 | 38962 ft | 495 kts | 121° |
| 2026-04-25 20:42 | 16.46253 | -23.49350 | 38961 ft | 495 kts | 121° |
| 2026-04-25 20:43 | 16.42866 | -23.43076 | 38956 ft | 496 kts | 122° |
| 2026-04-25 20:43 | 16.39483 | -23.36813 | 38956 ft | 496 kts | 122° |
| 2026-04-25 20:44 | 16.36097 | -23.30552 | 38950 ft | 494 kts | 122° |
| 2026-04-25 20:44 | 16.32724 | -23.24320 | 38954 ft | 492 kts | 122° |
| 2026-04-25 20:45 | 16.29380 | -23.18149 | 38955 ft | 492 kts | 122° |
| 2026-04-25 20:45 | 16.26010 | -23.11935 | 38959 ft | 492 kts | 122° |
| 2026-04-25 20:46 | 16.22648 | -23.05741 | 38959 ft | 491 kts | 122° |
| 2026-04-25 20:46 | 16.19272 | -22.99531 | 38959 ft | 491 kts | 122° |
| 2026-04-25 20:47 | 16.15901 | -22.93336 | 38931 ft | 491 kts | 122° |
| 2026-04-25 20:47 | 16.12531 | -22.87127 | 38931 ft | 492 kts | 121° |
| 2026-04-25 20:48 | 16.09230 | -22.80894 | 38925 ft | 490 kts | 121° |
| 2026-04-25 20:48 | 16.05938 | -22.74669 | 38932 ft | 489 kts | 121° |
| 2026-04-25 20:49 | 16.02651 | -22.68475 | 38945 ft | 489 kts | 121° |
| 2026-04-25 20:49 | 15.99359 | -22.62286 | 38952 ft | 489 kts | 121° |
| 2026-04-25 20:50 | 15.96063 | -22.56097 | 38956 ft | 489 kts | 121° |
| 2026-04-25 20:50 | 15.92761 | -22.49901 | 38957 ft | 489 kts | 121° |
| 2026-04-25 20:51 | 15.89480 | -22.43749 | 38957 ft | 489 kts | 121° |
| 2026-04-25 20:51 | 15.86172 | -22.37555 | 38956 ft | 489 kts | 121° |
| 2026-04-25 20:52 | 15.83423 | -22.32410 | 38945 ft | 489 kts | 121° |
| 2026-04-25 20:52 | 15.79569 | -22.25206 | 38949 ft | 487 kts | 122° |
| 2026-04-25 20:53 | 15.76269 | -22.19042 | 38950 ft | 487 kts | 122° |
| 2026-04-25 20:53 | 15.72962 | -22.12871 | 38953 ft | 487 kts | 122° |
| 2026-04-25 20:54 | 15.69663 | -22.06718 | 38956 ft | 487 kts | 122° |
| 2026-04-25 20:54 | 15.66380 | -22.00601 | 38953 ft | 487 kts | 122° |
| 2026-04-25 20:55 | 15.63080 | -21.94457 | 38951 ft | 487 kts | 122° |
| 2026-04-25 20:55 | 15.59770 | -21.88301 | 38950 ft | 487 kts | 122° |
| 2026-04-25 20:56 | 15.56465 | -21.82157 | 38955 ft | 487 kts | 122° |
| 2026-04-25 20:56 | 15.53157 | -21.76015 | 38948 ft | 486 kts | 122° |
| 2026-04-25 20:57 | 15.49855 | -21.69888 | 38949 ft | 486 kts | 122° |
| 2026-04-25 20:57 | 15.46569 | -21.63796 | 38951 ft | 486 kts | 122° |
| 2026-04-25 20:58 | 15.43265 | -21.57675 | 38946 ft | 486 kts | 122° |
| 2026-04-25 20:58 | 15.39953 | -21.51546 | 38944 ft | 486 kts | 122° |
| 2026-04-25 20:59 | 15.36646 | -21.45429 | 38943 ft | 486 kts | 122° |
| 2026-04-25 20:59 | 15.33331 | -21.39303 | 38943 ft | 486 kts | 122° |
| 2026-04-25 21:00 | 15.31137 | -21.35251 | 38945 ft | 486 kts | 122° |
| 2026-04-25 21:01 | 15.25060 | -21.24047 | 38941 ft | 485 kts | 122° |
| 2026-04-25 21:01 | 15.21757 | -21.17959 | 38944 ft | 484 kts | 122° |
| 2026-04-25 21:02 | 15.18448 | -21.11864 | 38939 ft | 484 kts | 122° |
| 2026-04-25 21:02 | 15.15158 | -21.05811 | 38939 ft | 484 kts | 122° |
| 2026-04-25 21:03 | 15.11849 | -20.99730 | 38933 ft | 485 kts | 122° |
| 2026-04-25 21:03 | 15.08539 | -20.93650 | 38938 ft | 484 kts | 122° |
| 2026-04-25 21:04 | 15.05226 | -20.87572 | 38938 ft | 484 kts | 122° |
| 2026-04-25 21:04 | 15.01901 | -20.81474 | 38938 ft | 484 kts | 122° |
| 2026-04-25 21:05 | 14.98587 | -20.75404 | 38934 ft | 483 kts | 122° |
| 2026-04-25 21:05 | 14.95306 | -20.69398 | 38932 ft | 482 kts | 122° |
| 2026-04-25 21:06 | 14.91999 | -20.63348 | 38933 ft | 482 kts | 122° |
| 2026-04-25 21:06 | 14.88696 | -20.57312 | 38930 ft | 482 kts | 122° |
| 2026-04-25 21:07 | 14.85385 | -20.51266 | 38930 ft | 482 kts | 122° |
| 2026-04-25 21:07 | 14.82071 | -20.45221 | 38925 ft | 482 kts | 122° |
| 2026-04-25 21:08 | 14.78764 | -20.39193 | 38933 ft | 481 kts | 122° |
| 2026-04-25 21:08 | 14.75458 | -20.33175 | 38932 ft | 481 kts | 122° |
| 2026-04-25 21:09 | 14.70524 | -20.24109 | 38922 ft | 481 kts | 119° |
| 2026-04-25 21:09 | 14.67800 | -20.17833 | 38925 ft | 482 kts | 112° |
| 2026-04-25 21:10 | 14.65642 | -20.11247 | 38934 ft | 483 kts | 109° |
| 2026-04-25 21:10 | 14.63555 | -20.04639 | 38926 ft | 483 kts | 109° |
| 2026-04-25 21:11 | 14.61457 | -19.98053 | 38922 ft | 483 kts | 110° |
| 2026-04-25 21:11 | 14.59361 | -19.91512 | 38920 ft | 483 kts | 110° |
| 2026-04-25 21:12 | 14.57243 | -19.84918 | 38918 ft | 483 kts | 110° |
| 2026-04-25 21:12 | 14.55826 | -19.80514 | 38913 ft | 478 kts | 110° |
| 2026-04-25 21:13 | 14.53065 | -19.71935 | 38919 ft | 471 kts | 110° |
| 2026-04-25 21:13 | 14.50992 | -19.65509 | 38917 ft | 471 kts | 110° |
| 2026-04-25 21:14 | 14.48921 | -19.59092 | 38918 ft | 471 kts | 110° |
| 2026-04-25 21:14 | 14.46863 | -19.52722 | 38915 ft | 470 kts | 110° |
| 2026-04-25 21:15 | 14.44787 | -19.46300 | 38908 ft | 471 kts | 110° |
| 2026-04-25 21:15 | 14.42712 | -19.39892 | 38913 ft | 469 kts | 110° |
| 2026-04-25 21:16 | 14.40644 | -19.33509 | 38908 ft | 469 kts | 110° |
| 2026-04-25 21:16 | 14.38919 | -19.28188 | 38906 ft | 469 kts | 110° |
| 2026-04-25 21:17 | 14.36844 | -19.21797 | 38906 ft | 469 kts | 110° |
| 2026-04-25 21:17 | 14.34771 | -19.15417 | 38906 ft | 469 kts | 110° |
| 2026-04-25 21:18 | 14.32704 | -19.09060 | 38904 ft | 468 kts | 110° |
| 2026-04-25 21:18 | 14.30631 | -19.02693 | 38906 ft | 468 kts | 110° |
| 2026-04-25 21:19 | 14.28560 | -18.96339 | 38893 ft | 468 kts | 110° |
| 2026-04-25 21:19 | 14.27514 | -18.93132 | 38532 ft | 470 kts | 110° |
| 2026-04-25 21:19 | 14.26473 | -18.89944 | 37995 ft | 469 kts | 110° |
| 2026-04-25 21:20 | 14.25428 | -18.86746 | 37457 ft | 470 kts | 109° |
| 2026-04-25 21:20 | 14.24722 | -18.84587 | 37121 ft | 470 kts | 109° |
| 2026-04-25 21:20 | 14.23334 | -18.80343 | 36455 ft | 472 kts | 109° |
| 2026-04-25 21:20 | 14.22281 | -18.77124 | 35965 ft | 473 kts | 109° |
| 2026-04-25 21:21 | 14.21228 | -18.73904 | 35379 ft | 476 kts | 109° |
| 2026-04-25 21:21 | 14.20165 | -18.70657 | 34796 ft | 477 kts | 109° |
| 2026-04-25 21:21 | 14.19100 | -18.67403 | 34225 ft | 479 kts | 109° |
| 2026-04-25 21:21 | 14.18035 | -18.64151 | 33630 ft | 480 kts | 109° |
| 2026-04-25 21:22 | 14.16962 | -18.60882 | 32981 ft | 481 kts | 108° |
| 2026-04-25 21:22 | 14.15883 | -18.57595 | 32358 ft | 488 kts | 108° |
| 2026-04-25 21:22 | 14.14791 | -18.54267 | 31750 ft | 489 kts | 108° |
| 2026-04-25 21:22 | 14.13692 | -18.50914 | 31159 ft | 502 kts | 108° |
| 2026-04-25 21:23 | 14.12558 | -18.47460 | 30574 ft | 507 kts | 107° |
| 2026-04-25 21:23 | 14.11428 | -18.44019 | 30010 ft | 507 kts | 107° |
| 2026-04-25 21:23 | 14.10297 | -18.40575 | 29342 ft | 505 kts | 107° |
| 2026-04-25 21:23 | 14.09174 | -18.37151 | 28702 ft | 504 kts | 107° |
| 2026-04-25 21:24 | 14.08065 | -18.33777 | 28058 ft | 502 kts | 107° |
| 2026-04-25 21:24 | 14.06945 | -18.30371 | 27427 ft | 500 kts | 108° |
| 2026-04-25 21:24 | 14.05828 | -18.26983 | 26815 ft | 497 kts | 108° |
| 2026-04-25 21:24 | 14.04715 | -18.23608 | 26223 ft | 495 kts | 108° |
| 2026-04-25 21:25 | 14.03611 | -18.20263 | 25639 ft | 492 kts | 108° |
| 2026-04-25 21:25 | 14.02508 | -18.16927 | 25107 ft | 489 kts | 108° |
| 2026-04-25 21:25 | 14.01413 | -18.13621 | 24588 ft | 484 kts | 108° |
| 2026-04-25 21:25 | 14.00339 | -18.10378 | 24022 ft | 472 kts | 108° |
| 2026-04-25 21:26 | 13.99295 | -18.07223 | 23523 ft | 456 kts | 108° |
| 2026-04-25 21:26 | 13.98305 | -18.04173 | 22940 ft | 440 kts | 105° |
| 2026-04-25 21:26 | 13.97922 | -18.01113 | 22342 ft | 423 kts | 85° |
| 2026-04-25 21:26 | 13.98498 | -17.98211 | 21795 ft | 410 kts | 66° |
| 2026-04-25 21:27 | 13.99872 | -17.95673 | 21255 ft | 405 kts | 51° |
| 2026-04-25 21:27 | 14.01575 | -17.93380 | 20781 ft | 403 kts | 50° |
| 2026-04-25 21:27 | 14.03289 | -17.91126 | 20291 ft | 403 kts | 50° |
| 2026-04-25 21:27 | 14.05014 | -17.88840 | 19778 ft | 403 kts | 50° |
| 2026-04-25 21:28 | 14.06721 | -17.86549 | 19253 ft | 404 kts | 50° |
| 2026-04-25 21:28 | 14.08426 | -17.84243 | 18765 ft | 404 kts | 51° |
| 2026-04-25 21:28 | 14.10125 | -17.81932 | 18273 ft | 404 kts | 51° |
| 2026-04-25 21:28 | 14.11816 | -17.79626 | 17738 ft | 403 kts | 51° |
| 2026-04-25 21:29 | 14.13509 | -17.77312 | 17155 ft | 403 kts | 51° |
| 2026-04-25 21:29 | 14.15200 | -17.75000 | 16614 ft | 403 kts | 51° |
| 2026-04-25 21:29 | 14.16889 | -17.72689 | 16068 ft | 403 kts | 51° |
| 2026-04-25 21:29 | 14.18574 | -17.70382 | 15506 ft | 400 kts | 52° |
| 2026-04-25 21:30 | 14.20226 | -17.68118 | 14985 ft | 390 kts | 52° |
| 2026-04-25 21:30 | 14.21838 | -17.65908 | 14523 ft | 380 kts | 52° |
| 2026-04-25 21:30 | 14.23407 | -17.63755 | 14061 ft | 370 kts | 52° |
| 2026-04-25 21:30 | 14.24420 | -17.62365 | 13796 ft | 362 kts | 52° |
| 2026-04-25 21:31 | 14.26408 | -17.59634 | 13111 ft | 349 kts | 52° |
| 2026-04-25 21:31 | 14.27852 | -17.57649 | 12598 ft | 341 kts | 53° |
| 2026-04-25 21:31 | 14.29258 | -17.55719 | 12094 ft | 333 kts | 53° |
| 2026-04-25 21:31 | 14.30639 | -17.53825 | 11610 ft | 326 kts | 53° |
| 2026-04-25 21:32 | 14.31973 | -17.51993 | 11135 ft | 320 kts | 53° |
| 2026-04-25 21:32 | 14.33295 | -17.50178 | 10659 ft | 314 kts | 54° |
| 2026-04-25 21:32 | 14.34602 | -17.48382 | 10183 ft | 309 kts | 54° |
| 2026-04-25 21:32 | 14.35878 | -17.46626 | 9715 ft | 304 kts | 54° |
| 2026-04-25 21:33 | 14.37142 | -17.44887 | 9211 ft | 300 kts | 54° |
| 2026-04-25 21:33 | 14.38382 | -17.43172 | 8719 ft | 295 kts | 54° |
| 2026-04-25 21:33 | 14.39602 | -17.41488 | 8231 ft | 291 kts | 53° |
| 2026-04-25 21:33 | 14.40812 | -17.39819 | 7785 ft | 289 kts | 53° |
| 2026-04-25 21:34 | 14.42019 | -17.38155 | 7362 ft | 290 kts | 52° |
| 2026-04-25 21:34 | 14.43235 | -17.36479 | 6893 ft | 293 kts | 52° |
| 2026-04-25 21:34 | 14.44466 | -17.34787 | 6431 ft | 295 kts | 52° |
| 2026-04-25 21:34 | 14.45703 | -17.33084 | 5957 ft | 296 kts | 51° |
| 2026-04-25 21:35 | 14.46928 | -17.31363 | 5474 ft | 298 kts | 55° |
| 2026-04-25 21:35 | 14.47650 | -17.29377 | 5052 ft | 302 kts | 81° |
| 2026-04-25 21:35 | 14.47443 | -17.27269 | 4896 ft | 292 kts | 108° |
| 2026-04-25 21:35 | 14.46434 | -17.25549 | 4925 ft | 272 kts | 133° |
| 2026-04-25 21:36 | 14.45020 | -17.24338 | 4993 ft | 258 kts | 142° |
| 2026-04-25 21:36 | 14.43627 | -17.23188 | 5004 ft | 252 kts | 136° |
| 2026-04-25 21:36 | 14.42397 | -17.21910 | 4993 ft | 250 kts | 128° |
| 2026-04-25 21:36 | 14.41336 | -17.20485 | 4869 ft | 249 kts | 122° |
| 2026-04-25 21:37 | 14.40452 | -17.18967 | 4596 ft | 244 kts | 115° |
| 2026-04-25 21:37 | 14.39948 | -17.17929 | 4426 ft | 244 kts | 112° |
| 2026-04-25 21:37 | 14.39106 | -17.15776 | 4044 ft | 239 kts | 105° |
| 2026-04-25 21:37 | 14.38619 | -17.14138 | 3753 ft | 237 kts | 101° |
| 2026-04-25 21:38 | 14.38252 | -17.12508 | 3476 ft | 236 kts | 97° |
| 2026-04-25 21:38 | 14.38009 | -17.10843 | 3239 ft | 232 kts | 89° |
| 2026-04-25 21:38 | 14.38280 | -17.09239 | 3003 ft | 223 kts | 63° |
| 2026-04-25 21:38 | 14.39165 | -17.07961 | 2996 ft | 217 kts | 40° |
| 2026-04-25 21:39 | 14.40449 | -17.07201 | 2979 ft | 210 kts | 17° |
| 2026-04-25 21:39 | 14.41843 | -17.07021 | 2959 ft | 194 kts | 1° |
| 2026-04-25 21:39 | 14.43140 | -17.07033 | 2950 ft | 180 kts | 359° |
| 2026-04-25 21:39 | 14.44384 | -17.07061 | 2985 ft | 177 kts | 0° |
| 2026-04-25 21:40 | 14.45614 | -17.07083 | 2981 ft | 178 kts | 0° |
| 2026-04-25 21:40 | 14.46846 | -17.07100 | 2970 ft | 180 kts | 0° |
| 2026-04-25 21:40 | 14.48100 | -17.07115 | 2990 ft | 180 kts | 1° |
| 2026-04-25 21:40 | 14.49365 | -17.07126 | 2989 ft | 180 kts | 0° |
| 2026-04-25 21:41 | 14.50609 | -17.07137 | 2985 ft | 178 kts | 1° |
| 2026-04-25 21:41 | 14.51850 | -17.07148 | 2843 ft | 178 kts | 1° |
| 2026-04-25 21:41 | 14.53078 | -17.07156 | 2641 ft | 180 kts | 0° |
| 2026-04-25 21:41 | 14.54343 | -17.07167 | 2405 ft | 178 kts | 0° |
| 2026-04-25 21:42 | 14.55557 | -17.07179 | 2165 ft | 175 kts | 1° |
| 2026-04-25 21:42 | 14.56795 | -17.07189 | 1950 ft | 176 kts | 1° |
| 2026-04-25 21:42 | 14.58029 | -17.07199 | 1737 ft | 177 kts | 0° |
| 2026-04-25 21:42 | 14.59259 | -17.07211 | 1502 ft | 177 kts | 0° |
| 2026-04-25 21:43 | 14.60474 | -17.07221 | 1266 ft | 173 kts | 359° |
| 2026-04-25 21:43 | 14.61656 | -17.07231 | 1066 ft | 171 kts | 359° |
| 2026-04-25 21:43 | 14.62866 | -17.07244 | 824 ft | 171 kts | 359° |
| 2026-04-25 21:43 | 14.64032 | -17.07253 | 615 ft | 169 kts | 358° |
| 2026-04-25 21:44 | 14.65217 | -17.07265 | 392 ft | 171 kts | 359° |
| 2026-04-25 21:44 | 14.66378 | -17.07291 | 301 ft | 150 kts | 359° |
| 2026-04-25 21:44 | 14.67414 | -17.07289 | 301 ft | 11 kts | 359° |
| 2026-04-25 21:45 | 14.67608 | -17.07265 | 302 ft | 42 kts | 13° |
| 2026-04-25 21:45 | 14.67770 | -17.07201 | 303 ft | 28 kts | 28° |
| 2026-04-25 21:45 | 14.67816 | -17.07176 | 301 ft | 0 kts | 28° |
| 2026-04-25 21:46 | 14.67826 | -17.07171 | 304 ft | 9 kts | 28° |
| 2026-04-25 21:46 | 14.67921 | -17.07118 | 303 ft | 17 kts | 26° |
| 2026-04-25 21:47 | 14.67979 | -17.07101 | 304 ft | 4 kts | 11° |
| 2026-04-25 21:47 | 14.68008 | -17.07098 | 304 ft | 0 kts | 1° |
| 2026-04-25 21:48 | 14.68041 | -17.07076 | 305 ft | 8 kts | 68° |
| 2026-04-25 21:48 | 14.68035 | -17.07021 | 301 ft | 8 kts | 108° |
| 2026-04-25 21:48 | 14.68011 | -17.06964 | 304 ft | 4 kts | 94° |
| 2026-04-25 21:48 | 14.68009 | -17.06925 | 304 ft | 6 kts | 93° |
| 2026-04-25 21:49 | 14.68007 | -17.06892 | 301 ft | 0 kts | 91° |